PWSweather.com
Personal Weather Stations
Station Observations
ALOHA852
Aloha, OR

Aloha, OR

Lat: 45.476667, Lon: -122.894722

Elevation: 278

Station Type: Ambient Weather

Latest ConditionsUpdated 12:28:00 PM PDT Tuesday, Jul 22, 2014
Currently Today's Max Today's Min Today's Average
Temperature 72.3°F22.4°C 73.6°F23.1°C 58.3°F14.6°C 63.3°F17.4°C
Dew Point 56.7°F13.7°C 60.0°F15.6°C 54.2°F12.3°C 57.7°F14.3°C
Winds 4.5 mph WSW7.2 kmh WSW 7.0 mph N11.3 kmh N - 1.6 mph 2.6 kmh
Wind Gusts 9.2 mph14.8 kmh 9.2 mph14.8 kmh - -
Humidity 58% 99% 55% 83%
Pressure 29.65 in1004.1 mb 29.67 in1004.7 mb 29.58 in1001.7 mb -
Precipitation - 0.14 in3.6 mm - -
Hour Temp Dew Point Humidity Winds Wind Gusts Pressure Precip Precip Rate Daily Precip Total
12:28 PM 72.3°F22.4°C 56.7°F13.7°C 58% 4.5 mph WSW7.2 kmh WSW 9.2 mph14.8 kmh 29.65 in1004.1 mb 0.00 in0.0 mm 0.00 in/hr0.0 mm/hr 0.14 in3.6 mm
12:27 PM 73.0°F22.8°C 57.4°F14.1°C 58% 3.8 mph SW6.1 kmh SW 9.2 mph14.8 kmh 29.65 in1004.1 mb 0.00 in0.0 mm 0.00 in/hr0.0 mm/hr 0.14 in3.6 mm
12:26 PM 73.4°F23.0°C 57.8°F14.3°C 58% 3.5 mph WSW5.6 kmh WSW 6.9 mph11.1 kmh 29.65 in1004.1 mb 0.00 in0.0 mm 0.00 in/hr0.0 mm/hr 0.14 in3.6 mm
12:25 PM 73.2°F22.9°C 57.1°F13.9°C 57% 3.6 mph WSW5.8 kmh WSW 6.9 mph11.1 kmh 29.65 in1004.1 mb 0.00 in0.0 mm 0.00 in/hr0.0 mm/hr 0.14 in3.6 mm
12:24 PM 73.4°F23.0°C 57.3°F14.1°C 57% 3.7 mph W6.0 kmh W 6.9 mph11.1 kmh 29.65 in1004.1 mb 0.00 in0.0 mm 0.00 in/hr0.0 mm/hr 0.14 in3.6 mm
12:23 PM 73.6°F23.1°C 57.4°F14.1°C 57% 3.5 mph W5.6 kmh W 6.9 mph11.1 kmh 29.65 in1004.1 mb 0.00 in0.0 mm 0.00 in/hr0.0 mm/hr 0.14 in3.6 mm
12:22 PM 73.6°F23.1°C 56.4°F13.6°C 55% 3.5 mph WNW5.6 kmh WNW 6.9 mph11.1 kmh 29.65 in1004.1 mb 0.00 in0.0 mm 0.00 in/hr0.0 mm/hr 0.14 in3.6 mm
12:21 PM 73.4°F23.0°C 57.8°F14.3°C 58% 3.4 mph WNW5.5 kmh WNW 6.9 mph11.1 kmh 29.65 in1004.1 mb 0.00 in0.0 mm 0.00 in/hr0.0 mm/hr 0.14 in3.6 mm
12:20 PM 73.6°F23.1°C 57.4°F14.1°C 57% 3.2 mph NW5.1 kmh NW 6.0 mph9.7 kmh 29.65 in1004.1 mb 0.00 in0.0 mm 0.00 in/hr0.0 mm/hr 0.14 in3.6 mm
12:19 PM 72.9°F22.7°C 57.3°F14.1°C 58% 3.1 mph NNW5.0 kmh NNW 6.0 mph9.7 kmh 29.65 in1004.1 mb 0.00 in0.0 mm 0.00 in/hr0.0 mm/hr 0.14 in3.6 mm
12:18 PM 72.7°F22.6°C 57.1°F13.9°C 58% 3.2 mph NNW5.1 kmh NNW 6.0 mph9.7 kmh 29.65 in1004.1 mb 0.00 in0.0 mm 0.00 in/hr0.0 mm/hr 0.14 in3.6 mm
12:17 PM 72.3°F22.4°C 56.7°F13.7°C 58% 3.4 mph NW5.5 kmh NW 6.0 mph9.7 kmh 29.65 in1004.1 mb 0.00 in0.0 mm 0.00 in/hr0.0 mm/hr 0.14 in3.6 mm
12:16 PM 72.5°F22.5°C 56.4°F13.6°C 57% 3.3 mph NNW5.3 kmh NNW 6.0 mph9.7 kmh 29.65 in1004.1 mb 0.00 in0.0 mm 0.00 in/hr0.0 mm/hr 0.14 in3.6 mm
12:15 PM 72.7°F22.6°C 57.1°F13.9°C 58% 3.2 mph NNW5.1 kmh NNW 5.4 mph8.7 kmh 29.65 in1004.1 mb 0.00 in0.0 mm 0.00 in/hr0.0 mm/hr 0.14 in3.6 mm
12:14 PM 72.7°F22.6°C 57.6°F14.2°C 59% 3.2 mph NNW5.1 kmh NNW 5.4 mph8.7 kmh 29.65 in1004.1 mb 0.00 in0.0 mm 0.00 in/hr0.0 mm/hr 0.14 in3.6 mm
12:13 PM 72.3°F22.4°C 57.7°F14.3°C 60% 3.4 mph NNW5.5 kmh NNW 5.4 mph8.7 kmh 29.65 in1004.1 mb 0.00 in0.0 mm 0.00 in/hr0.0 mm/hr 0.14 in3.6 mm
12:12 PM 72.5°F22.5°C 57.9°F14.4°C 60% 3.7 mph NW6.0 kmh NW 6.9 mph11.1 kmh 29.65 in1004.1 mb 0.00 in0.0 mm 0.00 in/hr0.0 mm/hr 0.14 in3.6 mm
12:11 PM 72.5°F22.5°C 57.4°F14.1°C 59% 3.7 mph NW6.0 kmh NW 6.9 mph11.1 kmh 29.65 in1004.1 mb 0.00 in0.0 mm 0.00 in/hr0.0 mm/hr 0.14 in3.6 mm
12:10 PM 72.3°F22.4°C 57.7°F14.3°C 60% 3.7 mph NW6.0 kmh NW 6.9 mph11.1 kmh 29.65 in1004.1 mb 0.00 in0.0 mm 0.00 in/hr0.0 mm/hr 0.14 in3.6 mm
12:09 PM 71.8°F22.1°C 56.7°F13.7°C 59% 3.6 mph NW5.8 kmh NW 6.9 mph11.1 kmh 29.66 in1004.4 mb 0.00 in0.0 mm 0.00 in/hr0.0 mm/hr 0.14 in3.6 mm
12:08 PM 71.8°F22.1°C 57.2°F14.0°C 60% 3.8 mph NW6.1 kmh NW 6.9 mph11.1 kmh 29.65 in1004.1 mb 0.00 in0.0 mm 0.00 in/hr0.0 mm/hr 0.14 in3.6 mm
12:07 PM 71.8°F22.1°C 56.7°F13.7°C 59% 3.8 mph NW6.1 kmh NW 6.9 mph11.1 kmh 29.65 in1004.1 mb 0.00 in0.0 mm 0.00 in/hr0.0 mm/hr 0.14 in3.6 mm
12:06 PM 71.4°F21.9°C 57.3°F14.1°C 61% 3.7 mph NW6.0 kmh NW 6.9 mph11.1 kmh 29.65 in1004.1 mb 0.00 in0.0 mm 0.00 in/hr0.0 mm/hr 0.14 in3.6 mm
12:05 PM 71.4°F21.9°C 56.8°F13.8°C 60% 3.5 mph NW5.6 kmh NW 6.9 mph11.1 kmh 29.65 in1004.1 mb 0.00 in0.0 mm 0.00 in/hr0.0 mm/hr 0.14 in3.6 mm
12:04 PM 71.8°F22.1°C 57.6°F14.2°C 61% 3.6 mph NW5.8 kmh NW 6.9 mph11.1 kmh 29.65 in1004.1 mb 0.00 in0.0 mm 0.00 in/hr0.0 mm/hr 0.14 in3.6 mm
12:03 PM 71.2°F21.8°C 57.1°F13.9°C 61% 3.6 mph W5.8 kmh W 6.9 mph11.1 kmh 29.65 in1004.1 mb 0.00 in0.0 mm 0.00 in/hr0.0 mm/hr 0.14 in3.6 mm
12:02 PM 71.4°F21.9°C 57.7°F14.3°C 62% 3.4 mph SW5.5 kmh SW 6.0 mph9.7 kmh 29.65 in1004.1 mb 0.00 in0.0 mm 0.00 in/hr0.0 mm/hr 0.14 in3.6 mm
12:01 PM 71.1°F21.7°C 57.9°F14.4°C 63% 3.4 mph SSW5.5 kmh SSW 6.0 mph9.7 kmh 29.65 in1004.1 mb 0.00 in0.0 mm 0.00 in/hr0.0 mm/hr 0.14 in3.6 mm
12:00 PM 70.7°F21.5°C 58.8°F14.9°C 66% 3.5 mph SSW5.6 kmh SSW 6.0 mph9.7 kmh 29.66 in1004.4 mb 0.00 in0.0 mm 0.00 in/hr0.0 mm/hr 0.14 in3.6 mm
11:59 AM 70.7°F21.5°C 59.2°F15.1°C 67% 3.8 mph S6.1 kmh S 6.0 mph9.7 kmh 29.65 in1004.1 mb 0.00 in0.0 mm 0.00 in/hr0.0 mm/hr 0.14 in3.6 mm
11:58 AM 70.2°F21.2°C 58.3°F14.6°C 66% 3.9 mph S6.3 kmh S 6.0 mph9.7 kmh 29.66 in1004.4 mb 0.00 in0.0 mm 0.00 in/hr0.0 mm/hr 0.14 in3.6 mm
11:57 AM 70.2°F21.2°C 58.3°F14.6°C 66% 4.1 mph S6.6 kmh S 6.0 mph9.7 kmh 29.65 in1004.1 mb 0.00 in0.0 mm 0.00 in/hr0.0 mm/hr 0.14 in3.6 mm
11:56 AM 70.0°F21.1°C 58.5°F14.7°C 67% 4.2 mph S6.8 kmh S 6.0 mph9.7 kmh 29.65 in1004.1 mb 0.00 in0.0 mm 0.00 in/hr0.0 mm/hr 0.14 in3.6 mm
11:55 AM 70.0°F21.1°C 58.5°F14.7°C 67% 4.1 mph S6.6 kmh S 6.0 mph9.7 kmh 29.65 in1004.1 mb 0.00 in0.0 mm 0.00 in/hr0.0 mm/hr 0.14 in3.6 mm
11:54 AM 70.5°F21.4°C 58.2°F14.6°C 65% 3.6 mph S5.8 kmh S 5.4 mph8.7 kmh 29.65 in1004.1 mb 0.00 in0.0 mm 0.00 in/hr0.0 mm/hr 0.14 in3.6 mm
11:53 AM 70.5°F21.4°C 58.2°F14.6°C 65% 3.3 mph S5.3 kmh S 5.4 mph8.7 kmh 29.65 in1004.1 mb 0.00 in0.0 mm 0.00 in/hr0.0 mm/hr 0.14 in3.6 mm
11:52 AM 70.7°F21.5°C 57.5°F14.2°C 63% 3.2 mph SSW5.1 kmh SSW 5.4 mph8.7 kmh 29.65 in1004.1 mb 0.00 in0.0 mm 0.00 in/hr0.0 mm/hr 0.14 in3.6 mm
11:51 AM 71.4°F21.9°C 57.7°F14.3°C 62% 3.0 mph SSW4.8 kmh SSW 5.4 mph8.7 kmh 29.66 in1004.4 mb 0.00 in0.0 mm 0.00 in/hr0.0 mm/hr 0.14 in3.6 mm
11:50 AM 71.6°F22.0°C 58.4°F14.7°C 63% 2.9 mph SSW4.7 kmh SSW 5.4 mph8.7 kmh 29.66 in1004.4 mb 0.00 in0.0 mm 0.00 in/hr0.0 mm/hr 0.14 in3.6 mm
11:49 AM 71.8°F22.1°C 58.1°F14.5°C 62% 2.7 mph SSW4.3 kmh SSW 5.4 mph8.7 kmh 29.65 in1004.1 mb 0.00 in0.0 mm 0.00 in/hr0.0 mm/hr 0.14 in3.6 mm
11:48 AM 72.0°F22.2°C 58.7°F14.8°C 63% 2.5 mph SW4.0 kmh SW 5.4 mph8.7 kmh 29.66 in1004.4 mb 0.00 in0.0 mm 0.00 in/hr0.0 mm/hr 0.14 in3.6 mm
11:47 AM 71.8°F22.1°C 59.4°F15.2°C 65% 2.4 mph SW3.9 kmh SW 4.5 mph7.2 kmh 29.65 in1004.1 mb 0.00 in0.0 mm 0.00 in/hr0.0 mm/hr 0.14 in3.6 mm
11:46 AM 72.0°F22.2°C 60.0°F15.6°C 66% 2.3 mph SW3.7 kmh SW 4.5 mph7.2 kmh 29.65 in1004.1 mb 0.00 in0.0 mm 0.00 in/hr0.0 mm/hr 0.14 in3.6 mm
11:45 AM 71.6°F22.0°C 59.7°F15.4°C 66% 2.6 mph SW4.2 kmh SW 4.5 mph7.2 kmh 29.65 in1004.1 mb 0.00 in0.0 mm 0.00 in/hr0.0 mm/hr 0.14 in3.6 mm
11:44 AM 71.1°F21.7°C 58.7°F14.8°C 65% 2.8 mph SW4.5 kmh SW 4.5 mph7.2 kmh 29.66 in1004.4 mb 0.00 in0.0 mm 0.00 in/hr0.0 mm/hr 0.14 in3.6 mm
11:43 AM 70.9°F21.6°C 58.1°F14.5°C 64% 3.0 mph SW4.8 kmh SW 4.5 mph7.2 kmh 29.65 in1004.1 mb 0.00 in0.0 mm 0.00 in/hr0.0 mm/hr 0.14 in3.6 mm
11:42 AM 71.1°F21.7°C 57.9°F14.4°C 63% 3.0 mph SW4.8 kmh SW 4.5 mph7.2 kmh 29.66 in1004.4 mb 0.00 in0.0 mm 0.00 in/hr0.0 mm/hr 0.14 in3.6 mm
11:41 AM 71.1°F21.7°C 57.9°F14.4°C 63% 3.0 mph SSW4.8 kmh SSW 4.5 mph7.2 kmh 29.66 in1004.4 mb 0.00 in0.0 mm 0.00 in/hr0.0 mm/hr 0.14 in3.6 mm
11:40 AM 70.7°F21.5°C 58.4°F14.7°C 65% 3.0 mph S4.8 kmh S 4.5 mph7.2 kmh 29.66 in1004.4 mb 0.00 in0.0 mm 0.00 in/hr0.0 mm/hr 0.14 in3.6 mm
11:39 AM 70.9°F21.6°C 58.6°F14.8°C 65% 2.9 mph S4.7 kmh S 4.5 mph7.2 kmh 29.66 in1004.4 mb 0.00 in0.0 mm 0.00 in/hr0.0 mm/hr 0.14 in3.6 mm
11:38 AM 70.9°F21.6°C 58.1°F14.5°C 64% 2.7 mph S4.3 kmh S 4.5 mph7.2 kmh 29.65 in1004.1 mb 0.00 in0.0 mm 0.00 in/hr0.0 mm/hr 0.14 in3.6 mm
11:37 AM 70.9°F21.6°C 58.6°F14.8°C 65% 2.4 mph SSE3.9 kmh SSE 3.8 mph6.1 kmh 29.66 in1004.4 mb 0.00 in0.0 mm 0.00 in/hr0.0 mm/hr 0.14 in3.6 mm
11:36 AM 70.9°F21.6°C 58.6°F14.8°C 65% 2.2 mph SSE3.5 kmh SSE 3.8 mph6.1 kmh 29.66 in1004.4 mb 0.00 in0.0 mm 0.00 in/hr0.0 mm/hr 0.14 in3.6 mm
11:35 AM 70.9°F21.6°C 58.6°F14.8°C 65% 2.1 mph SSE3.4 kmh SSE 3.8 mph6.1 kmh 29.66 in1004.4 mb 0.00 in0.0 mm 0.00 in/hr0.0 mm/hr 0.14 in3.6 mm
11:34 AM 71.1°F21.7°C 59.2°F15.1°C 66% 1.9 mph SSE3.1 kmh SSE 3.8 mph6.1 kmh 29.66 in1004.4 mb 0.00 in0.0 mm 0.00 in/hr0.0 mm/hr 0.14 in3.6 mm
11:33 AM 70.9°F21.6°C 59.8°F15.4°C 68% 1.8 mph SSE2.9 kmh SSE 3.8 mph6.1 kmh 29.66 in1004.4 mb 0.00 in0.0 mm 0.00 in/hr0.0 mm/hr 0.14 in3.6 mm
11:32 AM 71.1°F21.7°C 59.6°F15.3°C 67% 1.8 mph S2.9 kmh S 3.8 mph6.1 kmh 29.66 in1004.4 mb 0.00 in0.0 mm 0.00 in/hr0.0 mm/hr 0.14 in3.6 mm
11:31 AM 71.2°F21.8°C 59.7°F15.4°C 67% 1.7 mph WNW2.7 kmh WNW 3.8 mph6.1 kmh 29.66 in1004.4 mb 0.00 in0.0 mm 0.00 in/hr0.0 mm/hr 0.14 in3.6 mm
11:30 AM 71.4°F21.9°C 59.1°F15.1°C 65% 1.3 mph NNW2.1 kmh NNW 3.1 mph5.0 kmh 29.66 in1004.4 mb 0.00 in0.0 mm 0.00 in/hr0.0 mm/hr 0.14 in3.6 mm
11:29 AM 70.9°F21.6°C 59.4°F15.2°C 67% 1.1 mph NW1.8 kmh NW 3.1 mph5.0 kmh 29.66 in1004.4 mb 0.00 in0.0 mm 0.00 in/hr0.0 mm/hr 0.14 in3.6 mm
11:28 AM 70.9°F21.6°C 59.0°F15.0°C 66% 1.1 mph NW1.8 kmh NW 3.1 mph5.0 kmh 29.66 in1004.4 mb 0.00 in0.0 mm 0.00 in/hr0.0 mm/hr 0.14 in3.6 mm
11:27 AM 70.7°F21.5°C 58.8°F14.9°C 66% 1.0 mph NW1.6 kmh NW 3.1 mph5.0 kmh 29.66 in1004.4 mb 0.00 in0.0 mm 0.00 in/hr0.0 mm/hr 0.14 in3.6 mm
11:26 AM 70.3°F21.3°C 58.0°F14.4°C 65% 1.0 mph WNW1.6 kmh WNW 3.1 mph5.0 kmh 29.66 in1004.4 mb 0.00 in0.0 mm 0.00 in/hr0.0 mm/hr 0.14 in3.6 mm
11:25 AM 70.2°F21.2°C 57.9°F14.4°C 65% 0.8 mph NW1.3 kmh NW 3.1 mph5.0 kmh 29.66 in1004.4 mb 0.00 in0.0 mm 0.00 in/hr0.0 mm/hr 0.14 in3.6 mm
11:24 AM 70.0°F21.1°C 58.1°F14.5°C 66% 0.7 mph NW1.1 kmh NW 3.1 mph5.0 kmh 29.66 in1004.4 mb 0.00 in0.0 mm 0.00 in/hr0.0 mm/hr 0.14 in3.6 mm
11:23 AM 70.0°F21.1°C 57.7°F14.3°C 65% 0.5 mph NW0.8 kmh NW 3.1 mph5.0 kmh 29.66 in1004.4 mb 0.00 in0.0 mm 0.00 in/hr0.0 mm/hr 0.14 in3.6 mm
11:22 AM 69.4°F20.8°C 57.6°F14.2°C 66% 0.2 mph NNW0.3 kmh NNW 3.1 mph5.0 kmh 29.66 in1004.4 mb 0.00 in0.0 mm 0.00 in/hr0.0 mm/hr 0.14 in3.6 mm
11:21 AM 69.4°F20.8°C 57.6°F14.2°C 66% Calm Calm -- 29.66 in1004.4 mb 0.00 in0.0 mm 0.00 in/hr0.0 mm/hr 0.14 in3.6 mm
11:20 AM 69.4°F20.8°C 57.6°F14.2°C 66% Calm Calm -- 29.66 in1004.4 mb 0.00 in0.0 mm 0.00 in/hr0.0 mm/hr 0.14 in3.6 mm
11:19 AM 69.1°F20.6°C 57.7°F14.3°C 67% Calm Calm -- 29.66 in1004.4 mb 0.00 in0.0 mm 0.00 in/hr0.0 mm/hr 0.14 in3.6 mm
11:18 AM 68.9°F20.5°C 57.5°F14.2°C 67% Calm Calm -- 29.66 in1004.4 mb 0.00 in0.0 mm 0.00 in/hr0.0 mm/hr 0.14 in3.6 mm
11:17 AM 68.9°F20.5°C 57.5°F14.2°C 67% Calm Calm -- 29.66 in1004.4 mb 0.00 in0.0 mm 0.00 in/hr0.0 mm/hr 0.14 in3.6 mm
11:16 AM 68.9°F20.5°C 57.5°F14.2°C 67% Calm Calm -- 29.66 in1004.4 mb 0.00 in0.0 mm 0.00 in/hr0.0 mm/hr 0.14 in3.6 mm
11:15 AM 68.7°F20.4°C 57.3°F14.1°C 67% Calm Calm -- 29.66 in1004.4 mb 0.00 in0.0 mm 0.00 in/hr0.0 mm/hr 0.14 in3.6 mm
11:14 AM 68.5°F20.3°C 56.8°F13.8°C 66% Calm Calm -- 29.66 in1004.4 mb 0.00 in0.0 mm 0.00 in/hr0.0 mm/hr 0.14 in3.6 mm
11:13 AM 68.5°F20.3°C 56.8°F13.8°C 66% 0.1 mph NE0.2 kmh NE 1.6 mph2.6 kmh 29.66 in1004.4 mb 0.00 in0.0 mm 0.00 in/hr0.0 mm/hr 0.14 in3.6 mm
11:12 AM 68.4°F20.2°C 56.6°F13.7°C 66% 0.3 mph NE0.5 kmh NE 1.6 mph2.6 kmh 29.66 in1004.4 mb 0.00 in0.0 mm 0.00 in/hr0.0 mm/hr 0.14 in3.6 mm
11:11 AM 68.5°F20.3°C 56.8°F13.8°C 66% 0.4 mph NNE0.6 kmh NNE 3.1 mph5.0 kmh 29.66 in1004.4 mb 0.00 in0.0 mm 0.00 in/hr0.0 mm/hr 0.14 in3.6 mm
11:10 AM 68.5°F20.3°C 56.8°F13.8°C 66% 0.6 mph NNE1.0 kmh NNE 3.1 mph5.0 kmh 29.66 in1004.4 mb 0.00 in0.0 mm 0.00 in/hr0.0 mm/hr 0.14 in3.6 mm
11:09 AM 68.5°F20.3°C 56.8°F13.8°C 66% 0.8 mph NNE1.3 kmh NNE 3.1 mph5.0 kmh 29.66 in1004.4 mb 0.00 in0.0 mm 0.00 in/hr0.0 mm/hr 0.14 in3.6 mm
11:08 AM 68.5°F20.3°C 57.2°F14.0°C 67% 0.9 mph NNE1.4 kmh NNE 3.1 mph5.0 kmh 29.66 in1004.4 mb 0.00 in0.0 mm 0.00 in/hr0.0 mm/hr 0.14 in3.6 mm
11:07 AM 68.7°F20.4°C 57.3°F14.1°C 67% 1.1 mph NNE1.8 kmh NNE 3.1 mph5.0 kmh 29.66 in1004.4 mb 0.00 in0.0 mm 0.00 in/hr0.0 mm/hr 0.14 in3.6 mm
11:06 AM 68.5°F20.3°C 57.6°F14.2°C 68% 1.4 mph NNE2.3 kmh NNE 3.1 mph5.0 kmh 29.66 in1004.4 mb 0.00 in0.0 mm 0.00 in/hr0.0 mm/hr 0.14 in3.6 mm
11:05 AM 68.7°F20.4°C 57.8°F14.3°C 68% 1.7 mph NE2.7 kmh NE 3.1 mph5.0 kmh 29.66 in1004.4 mb 0.00 in0.0 mm 0.00 in/hr0.0 mm/hr 0.14 in3.6 mm
11:04 AM 68.4°F20.2°C 57.8°F14.3°C 69% 1.9 mph NE3.1 kmh NE 3.8 mph6.1 kmh 29.66 in1004.4 mb 0.00 in0.0 mm 0.00 in/hr0.0 mm/hr 0.14 in3.6 mm
11:03 AM 68.5°F20.3°C 58.8°F14.9°C 71% 1.8 mph NE2.9 kmh NE 3.8 mph6.1 kmh 29.66 in1004.4 mb 0.00 in0.0 mm 0.00 in/hr0.0 mm/hr 0.14 in3.6 mm
11:02 AM 68.0°F20.0°C 58.3°F14.6°C 71% 1.7 mph NE2.7 kmh NE 3.8 mph6.1 kmh 29.66 in1004.4 mb 0.00 in0.0 mm 0.00 in/hr0.0 mm/hr 0.14 in3.6 mm
11:01 AM 68.2°F20.1°C 58.4°F14.7°C 71% 1.5 mph NE2.4 kmh NE 3.8 mph6.1 kmh 29.66 in1004.4 mb 0.00 in0.0 mm 0.00 in/hr0.0 mm/hr 0.14 in3.6 mm
11:00 AM 68.0°F20.0°C 58.7°F14.8°C 72% 1.3 mph NE2.1 kmh NE 3.8 mph6.1 kmh 29.66 in1004.4 mb 0.00 in0.0 mm 0.00 in/hr0.0 mm/hr 0.14 in3.6 mm
10:59 AM 68.0°F20.0°C 59.0°F15.0°C 73% 1.1 mph NE1.8 kmh NE 3.8 mph6.1 kmh 29.66 in1004.4 mb 0.00 in0.0 mm 0.00 in/hr0.0 mm/hr 0.14 in3.6 mm
10:58 AM 67.6°F19.8°C 58.3°F14.6°C 72% 1.0 mph NE1.6 kmh NE 3.8 mph6.1 kmh 29.66 in1004.4 mb 0.00 in0.0 mm 0.00 in/hr0.0 mm/hr 0.14 in3.6 mm
10:57 AM 67.6°F19.8°C 58.7°F14.8°C 73% 0.9 mph NE1.4 kmh NE 3.8 mph6.1 kmh 29.66 in1004.4 mb 0.00 in0.0 mm 0.00 in/hr0.0 mm/hr 0.14 in3.6 mm
10:56 AM 67.5°F19.7°C 58.9°F14.9°C 74% 0.9 mph E1.4 kmh E 3.8 mph6.1 kmh 29.66 in1004.4 mb 0.00 in0.0 mm 0.00 in/hr0.0 mm/hr 0.14 in3.6 mm
10:55 AM 67.3°F19.6°C 59.1°F15.1°C 75% 0.9 mph E1.4 kmh E 3.8 mph6.1 kmh 29.66 in1004.4 mb 0.00 in0.0 mm 0.00 in/hr0.0 mm/hr 0.14 in3.6 mm
10:54 AM 67.1°F19.5°C 58.2°F14.6°C 73% 0.9 mph SE1.4 kmh SE 3.1 mph5.0 kmh 29.66 in1004.4 mb 0.00 in0.0 mm 0.00 in/hr0.0 mm/hr 0.14 in3.6 mm
10:53 AM 67.3°F19.6°C 58.4°F14.7°C 73% 1.1 mph SE1.8 kmh SE 3.1 mph5.0 kmh 29.66 in1004.4 mb 0.00 in0.0 mm 0.00 in/hr0.0 mm/hr 0.14 in3.6 mm
10:52 AM 67.1°F19.5°C 58.2°F14.6°C 73% 1.4 mph SE2.3 kmh SE 3.1 mph5.0 kmh 29.66 in1004.4 mb 0.00 in0.0 mm 0.00 in/hr0.0 mm/hr 0.14 in3.6 mm
10:51 AM 67.3°F19.6°C 58.7°F14.8°C 74% 1.5 mph SE2.4 kmh SE 3.1 mph5.0 kmh 29.66 in1004.4 mb 0.00 in0.0 mm 0.00 in/hr0.0 mm/hr 0.14 in3.6 mm
10:50 AM 66.9°F19.4°C 59.5°F15.3°C 77% 1.7 mph ESE2.7 kmh ESE 3.1 mph5.0 kmh 29.66 in1004.4 mb 0.00 in0.0 mm 0.00 in/hr0.0 mm/hr 0.14 in3.6 mm
10:49 AM 66.7°F19.3°C 59.0°F15.0°C 76% 1.9 mph ESE3.1 kmh ESE 3.1 mph5.0 kmh 29.66 in1004.4 mb 0.00 in0.0 mm 0.00 in/hr0.0 mm/hr 0.14 in3.6 mm
10:48 AM 66.6°F19.2°C 58.4°F14.7°C 75% 2.0 mph ESE3.2 kmh ESE 3.1 mph5.0 kmh 29.66 in1004.4 mb 0.00 in0.0 mm 0.00 in/hr0.0 mm/hr 0.14 in3.6 mm
10:47 AM 66.7°F19.3°C 58.2°F14.6°C 74% 1.9 mph ESE3.1 kmh ESE 3.1 mph5.0 kmh 29.66 in1004.4 mb 0.00 in0.0 mm 0.00 in/hr0.0 mm/hr 0.14 in3.6 mm
10:46 AM 66.7°F19.3°C 58.2°F14.6°C 74% 1.7 mph ESE2.7 kmh ESE 3.1 mph5.0 kmh 29.66 in1004.4 mb 0.00 in0.0 mm 0.00 in/hr0.0 mm/hr 0.14 in3.6 mm
10:45 AM 67.1°F19.5°C 58.2°F14.6°C 73% 1.5 mph E2.4 kmh E 3.1 mph5.0 kmh 29.66 in1004.4 mb 0.00 in0.0 mm 0.00 in/hr0.0 mm/hr 0.14 in3.6 mm
10:44 AM 66.7°F19.3°C 57.4°F14.1°C 72% 1.4 mph E2.3 kmh E 3.1 mph5.0 kmh 29.66 in1004.4 mb 0.00 in0.0 mm 0.00 in/hr0.0 mm/hr 0.14 in3.6 mm
10:43 AM 67.1°F19.5°C 58.2°F14.6°C 73% 1.3 mph NE2.1 kmh NE 3.1 mph5.0 kmh 29.66 in1004.4 mb 0.00 in0.0 mm 0.00 in/hr0.0 mm/hr 0.14 in3.6 mm
10:42 AM 66.9°F19.4°C 58.8°F14.9°C 75% 1.2 mph NNE1.9 kmh NNE 3.1 mph5.0 kmh 29.66 in1004.4 mb 0.00 in0.0 mm 0.00 in/hr0.0 mm/hr 0.14 in3.6 mm
10:41 AM 67.1°F19.5°C 57.8°F14.3°C 72% 1.2 mph N1.9 kmh N 3.1 mph5.0 kmh 29.66 in1004.4 mb 0.00 in0.0 mm 0.00 in/hr0.0 mm/hr 0.14 in3.6 mm
10:40 AM 67.1°F19.5°C 58.6°F14.8°C 74% 1.1 mph N1.8 kmh N 3.1 mph5.0 kmh 29.66 in1004.4 mb 0.00 in0.0 mm 0.00 in/hr0.0 mm/hr 0.14 in3.6 mm
10:39 AM 66.9°F19.4°C 59.1°F15.1°C 76% 0.9 mph N1.4 kmh N 3.1 mph5.0 kmh 29.66 in1004.4 mb 0.00 in0.0 mm 0.00 in/hr0.0 mm/hr 0.14 in3.6 mm
10:38 AM 66.4°F19.1°C 58.2°F14.6°C 75% 0.8 mph N1.3 kmh N 3.1 mph5.0 kmh 29.66 in1004.4 mb 0.00 in0.0 mm 0.00 in/hr0.0 mm/hr 0.14 in3.6 mm
10:37 AM 66.2°F19.0°C 57.7°F14.3°C 74% 0.9 mph N1.4 kmh N 3.1 mph5.0 kmh 29.66 in1004.4 mb 0.00 in0.0 mm 0.00 in/hr0.0 mm/hr 0.14 in3.6 mm
10:36 AM 66.0°F18.9°C 57.9°F14.4°C 75% 1.1 mph N1.8 kmh N 3.1 mph5.0 kmh 29.66 in1004.4 mb 0.00 in0.0 mm 0.00 in/hr0.0 mm/hr 0.14 in3.6 mm
10:35 AM 65.8°F18.8°C 57.7°F14.3°C 75% 1.4 mph N2.3 kmh N 4.5 mph7.2 kmh 29.66 in1004.4 mb 0.00 in0.0 mm 0.00 in/hr0.0 mm/hr 0.14 in3.6 mm
10:34 AM 65.8°F18.8°C 57.3°F14.1°C 74% 1.7 mph NNW2.7 kmh NNW 4.5 mph7.2 kmh 29.66 in1004.4 mb 0.00 in0.0 mm 0.00 in/hr0.0 mm/hr 0.14 in3.6 mm
10:33 AM 65.7°F18.7°C 57.2°F14.0°C 74% 1.9 mph NW3.1 kmh NW 4.5 mph7.2 kmh 29.67 in1004.7 mb 0.00 in0.0 mm 0.00 in/hr0.0 mm/hr 0.14 in3.6 mm
10:32 AM 65.5°F18.6°C 57.4°F14.1°C 75% 2.0 mph NW3.2 kmh NW 4.5 mph7.2 kmh 29.67 in1004.7 mb 0.00 in0.0 mm 0.00 in/hr0.0 mm/hr 0.14 in3.6 mm
10:31 AM 65.7°F18.7°C 58.3°F14.6°C 77% 2.0 mph NW3.2 kmh NW 4.5 mph7.2 kmh 29.66 in1004.4 mb 0.00 in0.0 mm 0.00 in/hr0.0 mm/hr 0.14 in3.6 mm
10:30 AM 65.1°F18.4°C 58.1°F14.5°C 78% 2.1 mph NW3.4 kmh NW 4.5 mph7.2 kmh 29.66 in1004.4 mb 0.00 in0.0 mm 0.00 in/hr0.0 mm/hr 0.14 in3.6 mm
10:29 AM 65.3°F18.5°C 58.6°F14.8°C 79% 2.1 mph NW3.4 kmh NW 4.5 mph7.2 kmh 29.66 in1004.4 mb 0.00 in0.0 mm 0.00 in/hr0.0 mm/hr 0.14 in3.6 mm
10:28 AM 65.1°F18.4°C 58.8°F14.9°C 80% 2.4 mph NW3.9 kmh NW 4.5 mph7.2 kmh 29.66 in1004.4 mb 0.00 in0.0 mm 0.00 in/hr0.0 mm/hr 0.14 in3.6 mm
10:27 AM 65.1°F18.4°C 58.5°F14.7°C 79% 2.7 mph NW4.3 kmh NW 4.5 mph7.2 kmh 29.66 in1004.4 mb 0.00 in0.0 mm 0.00 in/hr0.0 mm/hr 0.14 in3.6 mm
10:26 AM 64.9°F18.3°C 59.3°F15.2°C 82% 2.8 mph NW4.5 kmh NW 4.5 mph7.2 kmh 29.66 in1004.4 mb 0.00 in0.0 mm 0.00 in/hr0.0 mm/hr 0.14 in3.6 mm
10:25 AM 64.8°F18.2°C 58.1°F14.5°C 79% 2.8 mph NW4.5 kmh NW 4.5 mph7.2 kmh 29.66 in1004.4 mb 0.00 in0.0 mm 0.00 in/hr0.0 mm/hr 0.14 in3.6 mm
10:24 AM 64.8°F18.2°C 57.0°F13.9°C 76% 2.7 mph NNW4.3 kmh NNW 3.8 mph6.1 kmh 29.66 in1004.4 mb 0.00 in0.0 mm 0.00 in/hr0.0 mm/hr 0.14 in3.6 mm
10:23 AM 64.8°F18.2°C 57.8°F14.3°C 78% 2.7 mph N4.3 kmh N 3.8 mph6.1 kmh 29.65 in1004.1 mb 0.00 in0.0 mm 0.00 in/hr0.0 mm/hr 0.14 in3.6 mm
10:22 AM 64.6°F18.1°C 57.2°F14.0°C 77% 2.6 mph N4.2 kmh N 3.8 mph6.1 kmh 29.66 in1004.4 mb 0.00 in0.0 mm 0.00 in/hr0.0 mm/hr 0.14 in3.6 mm
10:21 AM 64.6°F18.1°C 57.6°F14.2°C 78% 2.4 mph N3.9 kmh N 3.8 mph6.1 kmh 29.66 in1004.4 mb 0.00 in0.0 mm 0.00 in/hr0.0 mm/hr 0.14 in3.6 mm
10:20 AM 64.6°F18.1°C 57.6°F14.2°C 78% 2.3 mph N3.7 kmh N 3.8 mph6.1 kmh 29.66 in1004.4 mb 0.00 in0.0 mm 0.00 in/hr0.0 mm/hr 0.14 in3.6 mm
10:19 AM 64.4°F18.0°C 57.4°F14.1°C 78% 2.4 mph N3.9 kmh N 3.8 mph6.1 kmh 29.66 in1004.4 mb 0.00 in0.0 mm 0.00 in/hr0.0 mm/hr 0.14 in3.6 mm
10:18 AM 64.6°F18.1°C 56.9°F13.8°C 76% 2.2 mph N3.5 kmh N 3.8 mph6.1 kmh 29.66 in1004.4 mb 0.00 in0.0 mm 0.00 in/hr0.0 mm/hr 0.14 in3.6 mm
10:17 AM 64.4°F18.0°C 57.8°F14.3°C 79% 2.0 mph N3.2 kmh N 3.8 mph6.1 kmh 29.66 in1004.4 mb 0.00 in0.0 mm 0.00 in/hr0.0 mm/hr 0.14 in3.6 mm
10:16 AM 64.6°F18.1°C 57.6°F14.2°C 78% 2.0 mph N3.2 kmh N 3.8 mph6.1 kmh 29.66 in1004.4 mb 0.00 in0.0 mm 0.00 in/hr0.0 mm/hr 0.14 in3.6 mm
10:15 AM 64.6°F18.1°C 57.9°F14.4°C 79% 1.9 mph N3.1 kmh N 3.8 mph6.1 kmh 29.66 in1004.4 mb 0.00 in0.0 mm 0.00 in/hr0.0 mm/hr 0.14 in3.6 mm
10:14 AM 64.6°F18.1°C 58.6°F14.8°C 81% 1.6 mph N2.6 kmh N 3.8 mph6.1 kmh 29.65 in1004.1 mb 0.00 in0.0 mm 0.00 in/hr0.0 mm/hr 0.14 in3.6 mm
10:13 AM 64.4°F18.0°C 58.8°F14.9°C 82% 1.3 mph N2.1 kmh N 3.8 mph6.1 kmh 29.65 in1004.1 mb 0.00 in0.0 mm 0.00 in/hr0.0 mm/hr 0.14 in3.6 mm
10:12 AM 64.4°F18.0°C 58.8°F14.9°C 82% 1.2 mph N1.9 kmh N 3.8 mph6.1 kmh 29.65 in1004.1 mb 0.00 in0.0 mm 0.00 in/hr0.0 mm/hr 0.14 in3.6 mm
10:11 AM 64.0°F17.8°C 58.5°F14.7°C 82% 1.4 mph N2.3 kmh N 3.8 mph6.1 kmh 29.65 in1004.1 mb 0.00 in0.0 mm 0.00 in/hr0.0 mm/hr 0.14 in3.6 mm
10:10 AM 64.0°F17.8°C 59.1°F15.1°C 84% 1.3 mph NNE2.1 kmh NNE 3.8 mph6.1 kmh 29.65 in1004.1 mb 0.00 in0.0 mm 0.00 in/hr0.0 mm/hr 0.14 in3.6 mm
10:09 AM 63.7°F17.6°C 58.8°F14.9°C 84% 1.2 mph NNE1.9 kmh NNE 3.8 mph6.1 kmh 29.65 in1004.1 mb 0.00 in0.0 mm 0.00 in/hr0.0 mm/hr 0.14 in3.6 mm
10:08 AM 63.3°F17.4°C 58.8°F14.9°C 85% 1.3 mph NNE2.1 kmh NNE 3.8 mph6.1 kmh 29.65 in1004.1 mb 0.00 in0.0 mm 0.00 in/hr0.0 mm/hr 0.14 in3.6 mm
10:07 AM 63.7°F17.6°C 58.4°F14.7°C 83% 1.6 mph N2.6 kmh N 5.4 mph8.7 kmh 29.65 in1004.1 mb 0.00 in0.0 mm 0.00 in/hr0.0 mm/hr 0.14 in3.6 mm
10:06 AM 63.3°F17.4°C 58.1°F14.5°C 83% 1.7 mph NNW2.7 kmh NNW 5.4 mph8.7 kmh 29.65 in1004.1 mb 0.00 in0.0 mm 0.00 in/hr0.0 mm/hr 0.14 in3.6 mm
10:05 AM 63.5°F17.5°C 58.6°F14.8°C 84% 1.8 mph NW2.9 kmh NW 5.4 mph8.7 kmh 29.65 in1004.1 mb 0.00 in0.0 mm 0.00 in/hr0.0 mm/hr 0.14 in3.6 mm
10:04 AM 63.1°F17.3°C 58.2°F14.6°C 84% 2.0 mph NW3.2 kmh NW 5.4 mph8.7 kmh 29.65 in1004.1 mb 0.00 in0.0 mm 0.00 in/hr0.0 mm/hr 0.14 in3.6 mm
10:03 AM 63.1°F17.3°C 58.2°F14.6°C 84% 2.3 mph NW3.7 kmh NW 5.4 mph8.7 kmh 29.65 in1004.1 mb 0.00 in0.0 mm 0.00 in/hr0.0 mm/hr 0.14 in3.6 mm
10:02 AM 62.8°F17.1°C 57.6°F14.2°C 83% 2.5 mph NW4.0 kmh NW 5.4 mph8.7 kmh 29.65 in1004.1 mb 0.00 in0.0 mm 0.00 in/hr0.0 mm/hr 0.14 in3.6 mm
10:01 AM 62.8°F17.1°C 57.6°F14.2°C 83% 2.6 mph NW4.2 kmh NW 5.4 mph8.7 kmh 29.65 in1004.1 mb 0.00 in0.0 mm 0.00 in/hr0.0 mm/hr 0.14 in3.6 mm
10:00 AM 62.8°F17.1°C 57.9°F14.4°C 84% 2.8 mph NW4.5 kmh NW 5.4 mph8.7 kmh 29.65 in1004.1 mb 0.00 in0.0 mm 0.00 in/hr0.0 mm/hr 0.14 in3.6 mm
09:59 AM 62.8°F17.1°C 57.6°F14.2°C 83% 3.0 mph NW4.8 kmh NW 5.4 mph8.7 kmh 29.65 in1004.1 mb 0.00 in0.0 mm 0.00 in/hr0.0 mm/hr 0.14 in3.6 mm
09:58 AM 62.8°F17.1°C 57.2°F14.0°C 82% 2.8 mph NW4.5 kmh NW 5.4 mph8.7 kmh 29.65 in1004.1 mb 0.00 in0.0 mm 0.00 in/hr0.0 mm/hr 0.14 in3.6 mm
09:57 AM 62.8°F17.1°C 57.9°F14.4°C 84% 2.5 mph NW4.0 kmh NW 5.4 mph8.7 kmh 29.65 in1004.1 mb 0.00 in0.0 mm 0.00 in/hr0.0 mm/hr 0.14 in3.6 mm
09:56 AM 62.8°F17.1°C 57.6°F14.2°C 83% 2.2 mph NW3.5 kmh NW 3.8 mph6.1 kmh 29.65 in1004.1 mb 0.00 in0.0 mm 0.00 in/hr0.0 mm/hr 0.14 in3.6 mm
09:55 AM 62.8°F17.1°C 58.5°F14.7°C 86% 2.1 mph NW3.4 kmh NW 3.8 mph6.1 kmh 29.65 in1004.1 mb 0.00 in0.0 mm 0.00 in/hr0.0 mm/hr 0.14 in3.6 mm
09:54 AM 62.6°F17.0°C 58.7°F14.8°C 87% 2.3 mph NW3.7 kmh NW 3.8 mph6.1 kmh 29.65 in1004.1 mb 0.00 in0.0 mm 0.00 in/hr0.0 mm/hr 0.14 in3.6 mm
09:53 AM 62.4°F16.9°C 59.2°F15.1°C 89% 2.2 mph NW3.5 kmh NW 3.8 mph6.1 kmh 29.65 in1004.1 mb 0.00 in0.0 mm 0.00 in/hr0.0 mm/hr 0.14 in3.6 mm
09:52 AM 62.4°F16.9°C 58.8°F14.9°C 88% 2.0 mph NW3.2 kmh NW 3.8 mph6.1 kmh 29.65 in1004.1 mb 0.00 in0.0 mm 0.00 in/hr0.0 mm/hr 0.14 in3.6 mm
09:51 AM 62.2°F16.8°C 58.7°F14.8°C 88% 1.8 mph NW2.9 kmh NW 3.8 mph6.1 kmh 29.65 in1004.1 mb 0.00 in0.0 mm 0.00 in/hr0.0 mm/hr 0.14 in3.6 mm
09:50 AM 62.1°F16.7°C 58.5°F14.7°C 88% 1.5 mph NW2.4 kmh NW 3.8 mph6.1 kmh 29.65 in1004.1 mb 0.00 in0.0 mm 0.00 in/hr0.0 mm/hr 0.14 in3.6 mm
09:49 AM 61.9°F16.6°C 58.3°F14.6°C 88% 1.3 mph NW2.1 kmh NW 3.8 mph6.1 kmh 29.65 in1004.1 mb 0.00 in0.0 mm 0.00 in/hr0.0 mm/hr 0.14 in3.6 mm
09:48 AM 61.9°F16.6°C 58.3°F14.6°C 88% 1.2 mph NW1.9 kmh NW 3.8 mph6.1 kmh 29.65 in1004.1 mb 0.00 in0.0 mm 0.00 in/hr0.0 mm/hr 0.14 in3.6 mm
09:47 AM 61.7°F16.5°C 58.1°F14.5°C 88% 1.2 mph NW1.9 kmh NW 3.8 mph6.1 kmh 29.65 in1004.1 mb 0.00 in0.0 mm 0.00 in/hr0.0 mm/hr 0.14 in3.6 mm
09:46 AM 61.7°F16.5°C 57.8°F14.3°C 87% 1.4 mph NNW2.3 kmh NNW 4.5 mph7.2 kmh 29.65 in1004.1 mb 0.00 in0.0 mm 0.00 in/hr0.0 mm/hr 0.14 in3.6 mm
09:45 AM 61.7°F16.5°C 58.4°F14.7°C 89% 1.5 mph N2.4 kmh N 4.5 mph7.2 kmh 29.66 in1004.4 mb 0.00 in0.0 mm 0.00 in/hr0.0 mm/hr 0.14 in3.6 mm
09:44 AM 61.9°F16.6°C 58.9°F14.9°C 90% 1.4 mph N2.3 kmh N 4.5 mph7.2 kmh 29.66 in1004.4 mb 0.00 in0.0 mm 0.00 in/hr0.0 mm/hr 0.14 in3.6 mm
09:43 AM 61.7°F16.5°C 59.1°F15.1°C 91% 1.5 mph N2.4 kmh N 4.5 mph7.2 kmh 29.65 in1004.1 mb 0.00 in0.0 mm 0.00 in/hr0.0 mm/hr 0.14 in3.6 mm
09:42 AM 61.5°F16.4°C 59.2°F15.1°C 92% 1.7 mph N2.7 kmh N 4.5 mph7.2 kmh 29.65 in1004.1 mb 0.00 in0.0 mm 0.00 in/hr0.0 mm/hr 0.14 in3.6 mm
09:41 AM 61.3°F16.3°C 59.0°F15.0°C 92% 1.7 mph N2.7 kmh N 4.5 mph7.2 kmh 29.65 in1004.1 mb 0.00 in0.0 mm 0.00 in/hr0.0 mm/hr 0.14 in3.6 mm
09:40 AM 61.3°F16.3°C 59.0°F15.0°C 92% 1.8 mph N2.9 kmh N 4.5 mph7.2 kmh 29.65 in1004.1 mb 0.00 in0.0 mm 0.00 in/hr0.0 mm/hr 0.14 in3.6 mm
09:39 AM 61.3°F16.3°C 59.0°F15.0°C 92% 1.9 mph N3.1 kmh N 4.5 mph7.2 kmh 29.65 in1004.1 mb 0.00 in0.0 mm 0.00 in/hr0.0 mm/hr 0.14 in3.6 mm
09:38 AM 61.2°F16.2°C 58.2°F14.6°C 90% 2.1 mph N3.4 kmh N 4.5 mph7.2 kmh 29.65 in1004.1 mb 0.00 in0.0 mm 0.00 in/hr0.0 mm/hr 0.14 in3.6 mm
09:37 AM 61.2°F16.2°C 58.2°F14.6°C 90% 2.0 mph N3.2 kmh N 4.5 mph7.2 kmh 29.65 in1004.1 mb 0.00 in0.0 mm 0.00 in/hr0.0 mm/hr 0.14 in3.6 mm
09:36 AM 61.2°F16.2°C 58.2°F14.6°C 90% 1.6 mph N2.6 kmh N 4.5 mph7.2 kmh 29.65 in1004.1 mb 0.00 in0.0 mm 0.00 in/hr0.0 mm/hr 0.14 in3.6 mm
09:35 AM 61.2°F16.2°C 58.2°F14.6°C 90% 1.3 mph N2.1 kmh N 3.1 mph5.0 kmh 29.65 in1004.1 mb 0.00 in0.0 mm 0.00 in/hr0.0 mm/hr 0.14 in3.6 mm
09:34 AM 61.3°F16.3°C 58.7°F14.8°C 91% 1.1 mph N1.8 kmh N 3.1 mph5.0 kmh 29.65 in1004.1 mb 0.00 in0.0 mm 0.00 in/hr0.0 mm/hr 0.14 in3.6 mm
09:33 AM 61.2°F16.2°C 59.4°F15.2°C 94% 0.8 mph N1.3 kmh N 3.1 mph5.0 kmh 29.65 in1004.1 mb 0.00 in0.0 mm 0.00 in/hr0.0 mm/hr 0.14 in3.6 mm
09:32 AM 61.0°F16.1°C 59.3°F15.2°C 94% 0.6 mph N1.0 kmh N 3.1 mph5.0 kmh 29.65 in1004.1 mb 0.00 in0.0 mm 0.00 in/hr0.0 mm/hr 0.14 in3.6 mm
09:31 AM 61.2°F16.2°C 59.1°F15.1°C 93% 0.5 mph N0.8 kmh N 3.1 mph5.0 kmh 29.65 in1004.1 mb 0.00 in0.0 mm 0.00 in/hr0.0 mm/hr 0.14 in3.6 mm
09:30 AM 61.0°F16.1°C 59.0°F15.0°C 93% 0.5 mph N0.8 kmh N 3.1 mph5.0 kmh 29.65 in1004.1 mb 0.00 in0.0 mm 0.00 in/hr0.0 mm/hr 0.14 in3.6 mm
09:29 AM 60.6°F15.9°C 58.6°F14.8°C 93% 0.4 mph N0.6 kmh N 3.1 mph5.0 kmh 29.65 in1004.1 mb 0.00 in0.0 mm 0.00 in/hr0.0 mm/hr 0.14 in3.6 mm
09:28 AM 60.6°F15.9°C 58.9°F14.9°C 94% 0.1 mph N0.2 kmh N 3.1 mph5.0 kmh 29.65 in1004.1 mb 0.00 in0.0 mm 0.00 in/hr0.0 mm/hr 0.14 in3.6 mm
09:27 AM 61.0°F16.1°C 59.6°F15.3°C 95% Calm Calm -- 29.65 in1004.1 mb 0.00 in0.0 mm 0.00 in/hr0.0 mm/hr 0.14 in3.6 mm
09:26 AM 61.0°F16.1°C 59.6°F15.3°C 95% Calm Calm -- 29.66 in1004.4 mb 0.00 in0.0 mm 0.00 in/hr0.0 mm/hr 0.14 in3.6 mm
09:25 AM 60.8°F16.0°C 59.7°F15.4°C 96% Calm Calm 0.7 mph1.1 kmh 29.65 in1004.1 mb 0.00 in0.0 mm 0.00 in/hr0.0 mm/hr 0.14 in3.6 mm
09:24 AM 60.6°F15.9°C 59.5°F15.3°C 96% 0.1 mph S0.2 kmh S 0.7 mph1.1 kmh 29.65 in1004.1 mb 0.00 in0.0 mm 0.00 in/hr0.0 mm/hr 0.14 in3.6 mm
09:23 AM 60.6°F15.9°C 59.5°F15.3°C 96% 0.2 mph S0.3 kmh S 1.6 mph2.6 kmh 29.66 in1004.4 mb 0.00 in0.0 mm 0.00 in/hr0.0 mm/hr 0.14 in3.6 mm
09:22 AM 60.4°F15.8°C 59.3°F15.2°C 96% 0.2 mph S0.3 kmh S 1.6 mph2.6 kmh 29.65 in1004.1 mb 0.00 in0.0 mm 0.00 in/hr0.0 mm/hr 0.14 in3.6 mm
09:21 AM 60.3°F15.7°C 59.1°F15.1°C 96% 0.2 mph S0.3 kmh S 1.6 mph2.6 kmh 29.65 in1004.1 mb 0.00 in0.0 mm 0.00 in/hr0.0 mm/hr 0.14 in3.6 mm
09:20 AM 60.3°F15.7°C 59.1°F15.1°C 96% 0.2 mph S0.3 kmh S 1.6 mph2.6 kmh 29.65 in1004.1 mb 0.00 in0.0 mm 0.00 in/hr0.0 mm/hr 0.14 in3.6 mm
09:19 AM 60.4°F15.8°C 59.3°F15.2°C 96% 0.5 mph N0.8 kmh N 3.8 mph6.1 kmh 29.65 in1004.1 mb 0.00 in0.0 mm 0.00 in/hr0.0 mm/hr 0.14 in3.6 mm
09:18 AM 60.1°F15.6°C 59.0°F15.0°C 96% 0.8 mph N1.3 kmh N 3.8 mph6.1 kmh 29.65 in1004.1 mb 0.00 in0.0 mm 0.00 in/hr0.0 mm/hr 0.14 in3.6 mm
09:17 AM 60.3°F15.7°C 59.1°F15.1°C 96% 1.1 mph N1.8 kmh N 3.8 mph6.1 kmh 29.65 in1004.1 mb 0.00 in0.0 mm 0.00 in/hr0.0 mm/hr 0.14 in3.6 mm
09:16 AM 60.1°F15.6°C 59.0°F15.0°C 96% 1.4 mph N2.3 kmh N 3.8 mph6.1 kmh 29.65 in1004.1 mb 0.00 in0.0 mm 0.00 in/hr0.0 mm/hr 0.14 in3.6 mm
09:15 AM 60.3°F15.7°C 59.1°F15.1°C 96% 1.5 mph N2.4 kmh N 3.8 mph6.1 kmh 29.65 in1004.1 mb 0.00 in0.0 mm 0.00 in/hr0.0 mm/hr 0.14 in3.6 mm
09:14 AM 60.3°F15.7°C 58.8°F14.9°C 95% 1.5 mph N2.4 kmh N 3.8 mph6.1 kmh 29.65 in1004.1 mb 0.00 in0.0 mm 0.00 in/hr0.0 mm/hr 0.14 in3.6 mm
09:13 AM 60.1°F15.6°C 58.7°F14.8°C 95% 1.3 mph N2.1 kmh N 3.8 mph6.1 kmh 29.65 in1004.1 mb 0.00 in0.0 mm 0.00 in/hr0.0 mm/hr 0.14 in3.6 mm
09:12 AM 60.1°F15.6°C 59.0°F15.0°C 96% 1.3 mph N2.1 kmh N 3.8 mph6.1 kmh 29.65 in1004.1 mb 0.00 in0.0 mm 0.00 in/hr0.0 mm/hr 0.14 in3.6 mm
09:11 AM 60.1°F15.6°C 59.0°F15.0°C 96% 1.4 mph N2.3 kmh N 3.8 mph6.1 kmh 29.65 in1004.1 mb 0.00 in0.0 mm 0.00 in/hr0.0 mm/hr 0.14 in3.6 mm
09:10 AM 59.9°F15.5°C 58.5°F14.7°C 95% 1.5 mph N2.4 kmh N 3.8 mph6.1 kmh 29.65 in1004.1 mb 0.00 in0.0 mm 0.00 in/hr0.0 mm/hr 0.14 in3.6 mm
09:09 AM 59.9°F15.5°C 58.5°F14.7°C 95% 1.3 mph NNE2.1 kmh NNE 3.8 mph6.1 kmh 29.65 in1004.1 mb 0.00 in0.0 mm 0.00 in/hr0.0 mm/hr 0.14 in3.6 mm
09:08 AM 60.1°F15.6°C 58.7°F14.8°C 95% 1.0 mph NNE1.6 kmh NNE 3.1 mph5.0 kmh 29.65 in1004.1 mb 0.00 in0.0 mm 0.00 in/hr0.0 mm/hr 0.14 in3.6 mm
09:07 AM 59.9°F15.5°C 58.2°F14.6°C 94% 0.9 mph N1.4 kmh N 3.1 mph5.0 kmh 29.65 in1004.1 mb 0.00 in0.0 mm 0.00 in/hr0.0 mm/hr 0.14 in3.6 mm
09:06 AM 60.1°F15.6°C 58.7°F14.8°C 95% 0.8 mph NW1.3 kmh NW 2.2 mph3.5 kmh 29.65 in1004.1 mb 0.00 in0.0 mm 0.00 in/hr0.0 mm/hr 0.14 in3.6 mm
09:05 AM 59.9°F15.5°C 58.8°F14.9°C 96% 0.9 mph WNW1.4 kmh WNW 3.1 mph5.0 kmh 29.65 in1004.1 mb 0.00 in0.0 mm 0.00 in/hr0.0 mm/hr 0.14 in3.6 mm
09:04 AM 60.1°F15.6°C 59.0°F15.0°C 96% 1.0 mph WNW1.6 kmh WNW 3.1 mph5.0 kmh 29.65 in1004.1 mb 0.00 in0.0 mm 0.00 in/hr0.0 mm/hr 0.14 in3.6 mm
09:03 AM 60.1°F15.6°C 59.0°F15.0°C 96% 1.0 mph WNW1.6 kmh WNW 3.1 mph5.0 kmh 29.65 in1004.1 mb 0.00 in0.0 mm 0.00 in/hr0.0 mm/hr 0.14 in3.6 mm
09:02 AM 60.3°F15.7°C 59.1°F15.1°C 96% 1.0 mph WNW1.6 kmh WNW 3.1 mph5.0 kmh 29.65 in1004.1 mb 0.00 in0.0 mm 0.00 in/hr0.0 mm/hr 0.14 in3.6 mm
09:01 AM 59.9°F15.5°C 58.8°F14.9°C 96% 0.9 mph WNW1.4 kmh WNW 3.1 mph5.0 kmh 29.65 in1004.1 mb 0.00 in0.0 mm 0.00 in/hr0.0 mm/hr 0.14 in3.6 mm
09:00 AM 59.9°F15.5°C 58.8°F14.9°C 96% 0.8 mph WNW1.3 kmh WNW 3.1 mph5.0 kmh 29.65 in1004.1 mb 0.00 in0.0 mm 0.00 in/hr0.0 mm/hr 0.14 in3.6 mm
08:59 AM 60.1°F15.6°C 59.0°F15.0°C 96% 0.8 mph WNW1.3 kmh WNW 3.1 mph5.0 kmh 29.65 in1004.1 mb 0.00 in0.0 mm 0.00 in/hr0.0 mm/hr 0.14 in3.6 mm
08:58 AM 59.9°F15.5°C 58.8°F14.9°C 96% 0.7 mph WNW1.1 kmh WNW 3.1 mph5.0 kmh 29.65 in1004.1 mb 0.00 in0.0 mm 0.00 in/hr0.0 mm/hr 0.14 in3.6 mm
08:57 AM 59.7°F15.4°C 58.6°F14.8°C 96% 0.5 mph WNW0.8 kmh WNW 3.1 mph5.0 kmh 29.65 in1004.1 mb 0.00 in0.0 mm 0.00 in/hr0.0 mm/hr 0.14 in3.6 mm
08:56 AM 59.9°F15.5°C 59.1°F15.1°C 97% 0.4 mph NW0.6 kmh NW 3.1 mph5.0 kmh 29.65 in1004.1 mb 0.00 in0.0 mm 0.00 in/hr0.0 mm/hr 0.14 in3.6 mm
08:55 AM 59.9°F15.5°C 59.1°F15.1°C 97% 0.1 mph NNW0.2 kmh NNW 3.1 mph5.0 kmh 29.65 in1004.1 mb 0.00 in0.0 mm 0.00 in/hr0.0 mm/hr 0.14 in3.6 mm
08:54 AM 59.9°F15.5°C 59.3°F15.2°C 98% 0.2 mph N0.3 kmh N 1.6 mph2.6 kmh 29.65 in1004.1 mb 0.00 in0.0 mm 0.00 in/hr0.0 mm/hr 0.14 in3.6 mm
08:53 AM 59.9°F15.5°C 59.3°F15.2°C 98% 0.4 mph N0.6 kmh N 2.2 mph3.5 kmh 29.65 in1004.1 mb 0.00 in0.0 mm 0.00 in/hr0.0 mm/hr 0.14 in3.6 mm
08:52 AM 59.9°F15.5°C 59.3°F15.2°C 98% 0.5 mph N0.8 kmh N 2.2 mph3.5 kmh 29.65 in1004.1 mb 0.00 in0.0 mm 0.00 in/hr0.0 mm/hr 0.14 in3.6 mm
08:51 AM 59.9°F15.5°C 59.3°F15.2°C 98% 0.9 mph N1.4 kmh N 5.4 mph8.7 kmh 29.65 in1004.1 mb 0.00 in0.0 mm 0.00 in/hr0.0 mm/hr 0.14 in3.6 mm
08:50 AM 59.7°F15.4°C 59.2°F15.1°C 98% 1.3 mph NNE2.1 kmh NNE 5.4 mph8.7 kmh 29.65 in1004.1 mb 0.00 in0.0 mm 0.00 in/hr0.0 mm/hr 0.14 in3.6 mm
08:49 AM 59.7°F15.4°C 59.2°F15.1°C 98% 1.6 mph NNE2.6 kmh NNE 5.4 mph8.7 kmh 29.65 in1004.1 mb 0.00 in0.0 mm 0.00 in/hr0.0 mm/hr 0.14 in3.6 mm
08:48 AM 59.9°F15.5°C 59.3°F15.2°C 98% 1.7 mph NNE2.7 kmh NNE 5.4 mph8.7 kmh 29.65 in1004.1 mb 0.00 in0.0 mm 0.00 in/hr0.0 mm/hr 0.14 in3.6 mm
08:47 AM 59.5°F15.3°C 59.0°F15.0°C 98% 1.7 mph NNE2.7 kmh NNE 5.4 mph8.7 kmh 29.65 in1004.1 mb 0.00 in0.0 mm 0.00 in/hr0.0 mm/hr 0.14 in3.6 mm
08:46 AM 59.5°F15.3°C 59.0°F15.0°C 98% 1.7 mph NNE2.7 kmh NNE 5.4 mph8.7 kmh 29.65 in1004.1 mb 0.00 in0.0 mm 0.00 in/hr0.0 mm/hr 0.14 in3.6 mm
08:45 AM 59.7°F15.4°C 59.2°F15.1°C 98% 1.7 mph N2.7 kmh N 5.4 mph8.7 kmh 29.65 in1004.1 mb 0.00 in0.0 mm 0.00 in/hr0.0 mm/hr 0.14 in3.6 mm
08:44 AM 59.5°F15.3°C 59.0°F15.0°C 98% 1.9 mph N3.1 kmh N 5.4 mph8.7 kmh 29.65 in1004.1 mb 0.00 in0.0 mm 0.00 in/hr0.0 mm/hr 0.14 in3.6 mm
08:43 AM 59.5°F15.3°C 58.7°F14.8°C 97% 1.7 mph N2.7 kmh N 5.4 mph8.7 kmh 29.65 in1004.1 mb 0.00 in0.0 mm 0.00 in/hr0.0 mm/hr 0.14 in3.6 mm
08:42 AM 59.5°F15.3°C 58.7°F14.8°C 97% 1.6 mph N2.6 kmh N 5.4 mph8.7 kmh 29.65 in1004.1 mb 0.00 in0.0 mm 0.00 in/hr0.0 mm/hr 0.14 in3.6 mm
08:41 AM 59.5°F15.3°C 59.0°F15.0°C 98% 1.2 mph N1.9 kmh N 5.4 mph8.7 kmh 29.65 in1004.1 mb 0.00 in0.0 mm 0.00 in/hr0.0 mm/hr 0.14 in3.6 mm
08:40 AM 59.7°F15.4°C 59.5°F15.3°C 99% 0.8 mph NW1.3 kmh NW 3.1 mph5.0 kmh 29.65 in1004.1 mb 0.00 in0.0 mm 0.00 in/hr0.0 mm/hr 0.14 in3.6 mm
08:39 AM 59.5°F15.3°C 59.3°F15.2°C 99% 0.8 mph NW1.3 kmh NW 3.1 mph5.0 kmh 29.65 in1004.1 mb 0.00 in0.0 mm 0.00 in/hr0.0 mm/hr 0.14 in3.6 mm
08:38 AM 59.5°F15.3°C 59.3°F15.2°C 99% 0.6 mph W1.0 kmh W 3.1 mph5.0 kmh 29.65 in1004.1 mb 0.00 in0.0 mm 0.00 in/hr0.0 mm/hr 0.14 in3.6 mm
08:37 AM 59.5°F15.3°C 59.3°F15.2°C 99% 0.7 mph W1.1 kmh W 3.1 mph5.0 kmh 29.66 in1004.4 mb 0.00 in0.0 mm 0.00 in/hr0.0 mm/hr 0.14 in3.6 mm
08:36 AM 59.5°F15.3°C 59.3°F15.2°C 99% 0.8 mph WSW1.3 kmh WSW 3.1 mph5.0 kmh 29.66 in1004.4 mb 0.00 in0.0 mm 0.00 in/hr0.0 mm/hr 0.14 in3.6 mm
08:35 AM 59.4°F15.2°C 59.1°F15.1°C 99% 0.7 mph SW1.1 kmh SW 3.1 mph5.0 kmh 29.65 in1004.1 mb 0.00 in0.0 mm 0.00 in/hr0.0 mm/hr 0.14 in3.6 mm
08:34 AM 59.9°F15.5°C 59.6°F15.3°C 99% 0.5 mph ENE0.8 kmh ENE 2.2 mph3.5 kmh 29.65 in1004.1 mb 0.00 in0.0 mm 0.00 in/hr0.0 mm/hr 0.14 in3.6 mm
08:33 AM 59.5°F15.3°C 59.3°F15.2°C 99% 0.5 mph NE0.8 kmh NE 2.2 mph3.5 kmh 29.65 in1004.1 mb 0.00 in0.0 mm 0.00 in/hr0.0 mm/hr 0.14 in3.6 mm
08:32 AM 59.5°F15.3°C 59.3°F15.2°C 99% 0.6 mph NE1.0 kmh NE 2.2 mph3.5 kmh 29.65 in1004.1 mb 0.00 in0.0 mm 0.00 in/hr0.0 mm/hr 0.14 in3.6 mm
08:31 AM 59.5°F15.3°C 59.3°F15.2°C 99% 0.6 mph NNE1.0 kmh NNE 2.2 mph3.5 kmh 29.65 in1004.1 mb 0.00 in0.0 mm 0.00 in/hr0.0 mm/hr 0.14 in3.6 mm
08:30 AM 59.5°F15.3°C 59.3°F15.2°C 99% 0.6 mph NNE1.0 kmh NNE 2.2 mph3.5 kmh 29.65 in1004.1 mb 0.01 in0.3 mm 0.00 in/hr0.0 mm/hr 0.14 in3.6 mm
08:29 AM 59.5°F15.3°C 59.3°F15.2°C 99% 0.4 mph WSW0.6 kmh WSW 1.6 mph2.6 kmh 29.65 in1004.1 mb 0.01 in0.3 mm 0.00 in/hr0.0 mm/hr 0.14 in3.6 mm
08:28 AM 59.4°F15.2°C 59.1°F15.1°C 99% 0.3 mph SW0.5 kmh SW 1.6 mph2.6 kmh 29.65 in1004.1 mb 0.01 in0.3 mm 0.00 in/hr0.0 mm/hr 0.14 in3.6 mm
08:27 AM 59.4°F15.2°C 59.1°F15.1°C 99% 0.3 mph SW0.5 kmh SW 1.6 mph2.6 kmh 29.65 in1004.1 mb 0.01 in0.3 mm 0.00 in/hr0.0 mm/hr 0.14 in3.6 mm
08:26 AM 59.2°F15.1°C 58.9°F14.9°C 99% 0.2 mph S0.3 kmh S 1.6 mph2.6 kmh 29.65 in1004.1 mb 0.01 in0.3 mm 0.00 in/hr0.0 mm/hr 0.14 in3.6 mm
08:25 AM 59.2°F15.1°C 58.9°F14.9°C 99% 0.2 mph N0.3 kmh N 1.6 mph2.6 kmh 29.65 in1004.1 mb 0.01 in0.3 mm 0.00 in/hr0.0 mm/hr 0.14 in3.6 mm
08:24 AM 59.0°F15.0°C 58.7°F14.8°C 99% 0.1 mph N0.2 kmh N 0.7 mph1.1 kmh 29.65 in1004.1 mb 0.01 in0.3 mm 0.00 in/hr0.0 mm/hr 0.14 in3.6 mm
08:23 AM 59.2°F15.1°C 58.9°F14.9°C 99% 0.1 mph N0.2 kmh N 0.7 mph1.1 kmh 29.65 in1004.1 mb 0.01 in0.3 mm 0.00 in/hr0.0 mm/hr 0.14 in3.6 mm
08:22 AM 59.2°F15.1°C 58.9°F14.9°C 99% Calm Calm 0.7 mph1.1 kmh 29.65 in1004.1 mb 0.01 in0.3 mm 0.00 in/hr0.0 mm/hr 0.14 in3.6 mm
08:21 AM 59.0°F15.0°C 58.7°F14.8°C 99% Calm Calm -- 29.65 in1004.1 mb 0.01 in0.3 mm 0.00 in/hr0.0 mm/hr 0.14 in3.6 mm
08:20 AM 58.8°F14.9°C 58.6°F14.8°C 99% Calm Calm -- 29.65 in1004.1 mb 0.01 in0.3 mm 0.00 in/hr0.0 mm/hr 0.14 in3.6 mm
08:19 AM 58.8°F14.9°C 58.6°F14.8°C 99% Calm Calm -- 29.65 in1004.1 mb 0.01 in0.3 mm 0.00 in/hr0.0 mm/hr 0.14 in3.6 mm
08:18 AM 59.0°F15.0°C 58.7°F14.8°C 99% Calm Calm -- 29.65 in1004.1 mb 0.01 in0.3 mm 0.00 in/hr0.0 mm/hr 0.14 in3.6 mm
08:17 AM 58.8°F14.9°C 58.6°F14.8°C 99% Calm Calm -- 29.65 in1004.1 mb 0.01 in0.3 mm 0.00 in/hr0.0 mm/hr 0.14 in3.6 mm
08:16 AM 59.0°F15.0°C 58.7°F14.8°C 99% Calm Calm -- 29.65 in1004.1 mb 0.01 in0.3 mm 0.00 in/hr0.0 mm/hr 0.14 in3.6 mm
08:15 AM 59.0°F15.0°C 58.7°F14.8°C 99% Calm Calm -- 29.65 in1004.1 mb 0.01 in0.3 mm 0.00 in/hr0.0 mm/hr 0.14 in3.6 mm
08:14 AM 59.2°F15.1°C 58.9°F14.9°C 99% Calm Calm -- 29.65 in1004.1 mb 0.01 in0.3 mm 0.00 in/hr0.0 mm/hr 0.14 in3.6 mm
08:13 AM 59.0°F15.0°C 58.7°F14.8°C 99% Calm Calm -- 29.65 in1004.1 mb 0.01 in0.3 mm 0.00 in/hr0.0 mm/hr 0.14 in3.6 mm
08:12 AM 59.0°F15.0°C 58.7°F14.8°C 99% Calm Calm -- 29.65 in1004.1 mb 0.01 in0.3 mm 0.00 in/hr0.0 mm/hr 0.14 in3.6 mm
08:11 AM 58.8°F14.9°C 58.6°F14.8°C 99% Calm Calm -- 29.65 in1004.1 mb 0.01 in0.3 mm 0.00 in/hr0.0 mm/hr 0.14 in3.6 mm
08:10 AM 59.0°F15.0°C 58.7°F14.8°C 99% Calm Calm -- 29.65 in1004.1 mb 0.01 in0.3 mm 0.00 in/hr0.0 mm/hr 0.14 in3.6 mm
08:09 AM 58.8°F14.9°C 58.6°F14.8°C 99% Calm Calm -- 29.65 in1004.1 mb 0.01 in0.3 mm 0.00 in/hr0.0 mm/hr 0.14 in3.6 mm
08:08 AM 59.0°F15.0°C 58.7°F14.8°C 99% Calm Calm -- 29.65 in1004.1 mb 0.01 in0.3 mm 0.00 in/hr0.0 mm/hr 0.14 in3.6 mm
08:07 AM 59.0°F15.0°C 58.7°F14.8°C 99% Calm Calm -- 29.65 in1004.1 mb 0.01 in0.3 mm 0.00 in/hr0.0 mm/hr 0.14 in3.6 mm
08:06 AM 59.0°F15.0°C 58.7°F14.8°C 99% Calm Calm -- 29.64 in1003.7 mb 0.01 in0.3 mm 0.00 in/hr0.0 mm/hr 0.14 in3.6 mm
08:05 AM 58.8°F14.9°C 58.6°F14.8°C 99% Calm Calm -- 29.65 in1004.1 mb 0.01 in0.3 mm 0.00 in/hr0.0 mm/hr 0.14 in3.6 mm
08:04 AM 59.0°F15.0°C 58.7°F14.8°C 99% Calm Calm -- 29.65 in1004.1 mb 0.01 in0.3 mm 0.00 in/hr0.0 mm/hr 0.14 in3.6 mm
08:03 AM 58.8°F14.9°C 58.6°F14.8°C 99% Calm Calm -- 29.65 in1004.1 mb 0.01 in0.3 mm 0.00 in/hr0.0 mm/hr 0.14 in3.6 mm
08:02 AM 59.0°F15.0°C 58.7°F14.8°C 99% Calm Calm -- 29.65 in1004.1 mb 0.01 in0.3 mm 0.00 in/hr0.0 mm/hr 0.14 in3.6 mm
08:01 AM 58.6°F14.8°C 58.4°F14.7°C 99% Calm Calm -- 29.65 in1004.1 mb 0.01 in0.3 mm 0.00 in/hr0.0 mm/hr 0.14 in3.6 mm
08:00 AM 58.6°F14.8°C 58.4°F14.7°C 99% Calm Calm -- 29.65 in1004.1 mb 0.01 in0.3 mm 0.00 in/hr0.0 mm/hr 0.14 in3.6 mm
07:59 AM 58.8°F14.9°C 58.6°F14.8°C 99% Calm Calm -- 29.65 in1004.1 mb 0.01 in0.3 mm 0.00 in/hr0.0 mm/hr 0.14 in3.6 mm
07:58 AM 58.6°F14.8°C 58.4°F14.7°C 99% Calm Calm -- 29.65 in1004.1 mb 0.01 in0.3 mm 0.00 in/hr0.0 mm/hr 0.14 in3.6 mm
07:57 AM 58.6°F14.8°C 58.4°F14.7°C 99% Calm Calm -- 29.65 in1004.1 mb 0.02 in0.5 mm 0.00 in/hr0.0 mm/hr 0.14 in3.6 mm
07:56 AM 58.8°F14.9°C 58.6°F14.8°C 99% Calm Calm -- 29.65 in1004.1 mb 0.02 in0.5 mm 0.00 in/hr0.0 mm/hr 0.14 in3.6 mm
07:55 AM 58.6°F14.8°C 58.4°F14.7°C 99% Calm Calm -- 29.64 in1003.7 mb 0.02 in0.5 mm 0.00 in/hr0.0 mm/hr 0.14 in3.6 mm
07:54 AM 58.8°F14.9°C 58.6°F14.8°C 99% Calm Calm -- 29.64 in1003.7 mb 0.02 in0.5 mm 0.00 in/hr0.0 mm/hr 0.14 in3.6 mm
07:53 AM 58.6°F14.8°C 58.4°F14.7°C 99% Calm Calm -- 29.64 in1003.7 mb 0.02 in0.5 mm 0.00 in/hr0.0 mm/hr 0.14 in3.6 mm
07:52 AM 58.6°F14.8°C 58.4°F14.7°C 99% Calm Calm -- 29.64 in1003.7 mb 0.02 in0.5 mm 0.00 in/hr0.0 mm/hr 0.14 in3.6 mm
07:51 AM 58.8°F14.9°C 58.6°F14.8°C 99% Calm Calm -- 29.64 in1003.7 mb 0.02 in0.5 mm 0.00 in/hr0.0 mm/hr 0.14 in3.6 mm
07:50 AM 58.5°F14.7°C 58.2°F14.6°C 99% Calm Calm -- 29.64 in1003.7 mb 0.02 in0.5 mm 0.00 in/hr0.0 mm/hr 0.14 in3.6 mm
07:49 AM 58.6°F14.8°C 58.4°F14.7°C 99% Calm Calm -- 29.64 in1003.7 mb 0.02 in0.5 mm 0.00 in/hr0.0 mm/hr 0.14 in3.6 mm
07:48 AM 58.5°F14.7°C 58.2°F14.6°C 99% Calm Calm -- 29.64 in1003.7 mb 0.02 in0.5 mm 0.00 in/hr0.0 mm/hr 0.14 in3.6 mm
07:47 AM 58.6°F14.8°C 58.4°F14.7°C 99% Calm Calm -- 29.64 in1003.7 mb 0.02 in0.5 mm 0.00 in/hr0.0 mm/hr 0.14 in3.6 mm
07:46 AM 58.6°F14.8°C 58.4°F14.7°C 99% Calm Calm -- 29.64 in1003.7 mb 0.02 in0.5 mm 0.00 in/hr0.0 mm/hr 0.14 in3.6 mm
07:45 AM 58.8°F14.9°C 58.6°F14.8°C 99% Calm Calm -- 29.64 in1003.7 mb 0.02 in0.5 mm 0.00 in/hr0.0 mm/hr 0.14 in3.6 mm
07:44 AM 58.5°F14.7°C 58.2°F14.6°C 99% Calm Calm -- 29.64 in1003.7 mb 0.02 in0.5 mm 0.00 in/hr0.0 mm/hr 0.14 in3.6 mm
07:43 AM 58.6°F14.8°C 58.4°F14.7°C 99% Calm Calm -- 29.64 in1003.7 mb 0.02 in0.5 mm 0.00 in/hr0.0 mm/hr 0.14 in3.6 mm
07:42 AM 58.8°F14.9°C 58.6°F14.8°C 99% 0.1 mph NW0.2 kmh NW 1.6 mph2.6 kmh 29.64 in1003.7 mb 0.02 in0.5 mm 0.00 in/hr0.0 mm/hr 0.14 in3.6 mm
07:41 AM 58.6°F14.8°C 58.4°F14.7°C 99% 0.3 mph NNW0.5 kmh NNW 2.2 mph3.5 kmh 29.64 in1003.7 mb 0.02 in0.5 mm 0.00 in/hr0.0 mm/hr 0.14 in3.6 mm
07:40 AM 58.6°F14.8°C 58.4°F14.7°C 99% 0.6 mph NW1.0 kmh NW 3.8 mph6.1 kmh 29.64 in1003.7 mb 0.02 in0.5 mm 0.00 in/hr0.0 mm/hr 0.14 in3.6 mm
07:39 AM 58.5°F14.7°C 58.2°F14.6°C 99% 0.9 mph NW1.4 kmh NW 3.8 mph6.1 kmh 29.64 in1003.7 mb 0.02 in0.5 mm 0.00 in/hr0.0 mm/hr 0.14 in3.6 mm
07:38 AM 58.6°F14.8°C 58.4°F14.7°C 99% 0.9 mph NW1.4 kmh NW 3.8 mph6.1 kmh 29.64 in1003.7 mb 0.02 in0.5 mm 0.00 in/hr0.0 mm/hr 0.14 in3.6 mm
07:37 AM 58.5°F14.7°C 58.2°F14.6°C 99% 0.9 mph NW1.4 kmh NW 3.8 mph6.1 kmh 29.64 in1003.7 mb 0.02 in0.5 mm 0.00 in/hr0.0 mm/hr 0.14 in3.6 mm
07:36 AM 58.6°F14.8°C 58.4°F14.7°C 99% 0.9 mph NW1.4 kmh NW 3.8 mph6.1 kmh 29.64 in1003.7 mb 0.02 in0.5 mm 0.00 in/hr0.0 mm/hr 0.14 in3.6 mm
07:35 AM 58.6°F14.8°C 58.4°F14.7°C 99% 0.9 mph NW1.4 kmh NW 3.8 mph6.1 kmh 29.64 in1003.7 mb 0.02 in0.5 mm 0.00 in/hr0.0 mm/hr 0.14 in3.6 mm
07:34 AM 58.6°F14.8°C 58.4°F14.7°C 99% 0.9 mph NW1.4 kmh NW 3.8 mph6.1 kmh 29.64 in1003.7 mb 0.02 in0.5 mm 0.00 in/hr0.0 mm/hr 0.14 in3.6 mm
07:33 AM 58.6°F14.8°C 58.4°F14.7°C 99% 0.9 mph NW1.4 kmh NW 3.8 mph6.1 kmh 29.64 in1003.7 mb 0.02 in0.5 mm 0.00 in/hr0.0 mm/hr 0.14 in3.6 mm
07:32 AM 58.8°F14.9°C 58.6°F14.8°C 99% 0.9 mph NW1.4 kmh NW 3.8 mph6.1 kmh 29.64 in1003.7 mb 0.02 in0.5 mm 0.00 in/hr0.0 mm/hr 0.14 in3.6 mm
07:31 AM 58.5°F14.7°C 58.2°F14.6°C 99% 0.7 mph NW1.1 kmh NW 3.8 mph6.1 kmh 29.64 in1003.7 mb 0.02 in0.5 mm 0.60 in/hr15.2 mm/hr 0.14 in3.6 mm
07:30 AM 58.6°F14.8°C 58.4°F14.7°C 99% 0.4 mph NW0.6 kmh NW 3.1 mph5.0 kmh 29.64 in1003.7 mb 0.01 in0.3 mm 0.00 in/hr0.0 mm/hr 0.13 in3.3 mm
07:29 AM 58.6°F14.8°C 58.4°F14.7°C 99% 0.1 mph N0.2 kmh N 1.6 mph2.6 kmh 29.64 in1003.7 mb 0.01 in0.3 mm 0.00 in/hr0.0 mm/hr 0.13 in3.3 mm
07:28 AM 58.6°F14.8°C 58.4°F14.7°C 99% Calm Calm -- 29.64 in1003.7 mb 0.01 in0.3 mm 0.00 in/hr0.0 mm/hr 0.13 in3.3 mm
07:27 AM 58.6°F14.8°C 58.4°F14.7°C 99% Calm Calm -- 29.64 in1003.7 mb 0.01 in0.3 mm 0.00 in/hr0.0 mm/hr 0.13 in3.3 mm
07:26 AM 58.6°F14.8°C 58.4°F14.7°C 99% Calm Calm -- 29.64 in1003.7 mb 0.01 in0.3 mm 0.00 in/hr0.0 mm/hr 0.13 in3.3 mm
07:25 AM 58.6°F14.8°C 58.4°F14.7°C 99% Calm Calm -- 29.64 in1003.7 mb 0.01 in0.3 mm 0.00 in/hr0.0 mm/hr 0.13 in3.3 mm
07:24 AM 58.6°F14.8°C 58.4°F14.7°C 99% Calm Calm -- 29.64 in1003.7 mb 0.01 in0.3 mm 0.00 in/hr0.0 mm/hr 0.13 in3.3 mm
07:23 AM 58.5°F14.7°C 58.2°F14.6°C 99% Calm Calm -- 29.64 in1003.7 mb 0.01 in0.3 mm 0.00 in/hr0.0 mm/hr 0.13 in3.3 mm
07:22 AM 58.5°F14.7°C 58.2°F14.6°C 99% Calm Calm -- 29.64 in1003.7 mb 0.01 in0.3 mm 0.00 in/hr0.0 mm/hr 0.13 in3.3 mm
07:21 AM 58.6°F14.8°C 58.4°F14.7°C 99% Calm Calm -- 29.64 in1003.7 mb 0.02 in0.5 mm 0.00 in/hr0.0 mm/hr 0.13 in3.3 mm
07:20 AM 58.5°F14.7°C 58.2°F14.6°C 99% Calm Calm -- 29.64 in1003.7 mb 0.02 in0.5 mm 0.00 in/hr0.0 mm/hr 0.13 in3.3 mm
07:19 AM 58.5°F14.7°C 58.2°F14.6°C 99% Calm Calm -- 29.64 in1003.7 mb 0.02 in0.5 mm 0.00 in/hr0.0 mm/hr 0.13 in3.3 mm
07:18 AM 58.5°F14.7°C 58.2°F14.6°C 99% Calm Calm -- 29.64 in1003.7 mb 0.02 in0.5 mm 0.00 in/hr0.0 mm/hr 0.13 in3.3 mm
07:17 AM 58.5°F14.7°C 58.2°F14.6°C 99% Calm Calm -- 29.64 in1003.7 mb 0.02 in0.5 mm 0.00 in/hr0.0 mm/hr 0.13 in3.3 mm
07:16 AM 58.5°F14.7°C 58.2°F14.6°C 99% Calm Calm -- 29.64 in1003.7 mb 0.02 in0.5 mm 0.00 in/hr0.0 mm/hr 0.13 in3.3 mm
07:15 AM 58.5°F14.7°C 58.2°F14.6°C 99% Calm Calm -- 29.64 in1003.7 mb 0.02 in0.5 mm 0.00 in/hr0.0 mm/hr 0.13 in3.3 mm
07:14 AM 58.5°F14.7°C 58.2°F14.6°C 99% Calm Calm -- 29.64 in1003.7 mb 0.02 in0.5 mm 0.00 in/hr0.0 mm/hr 0.13 in3.3 mm
07:13 AM 58.5°F14.7°C 58.2°F14.6°C 99% Calm Calm -- 29.64 in1003.7 mb 0.02 in0.5 mm 0.00 in/hr0.0 mm/hr 0.13 in3.3 mm
07:12 AM 58.5°F14.7°C 58.2°F14.6°C 99% Calm Calm -- 29.64 in1003.7 mb 0.02 in0.5 mm 0.00 in/hr0.0 mm/hr 0.13 in3.3 mm
07:11 AM 58.5°F14.7°C 58.2°F14.6°C 99% Calm Calm -- 29.64 in1003.7 mb 0.04 in1.0 mm 0.00 in/hr0.0 mm/hr 0.13 in3.3 mm
07:10 AM 58.3°F14.6°C 58.0°F14.4°C 99% Calm Calm -- 29.64 in1003.7 mb 0.04 in1.0 mm 0.00 in/hr0.0 mm/hr 0.13 in3.3 mm
07:09 AM 58.5°F14.7°C 58.2°F14.6°C 99% Calm Calm -- 29.64 in1003.7 mb 0.04 in1.0 mm 0.00 in/hr0.0 mm/hr 0.13 in3.3 mm
07:08 AM 58.5°F14.7°C 58.2°F14.6°C 99% 0.1 mph NE0.2 kmh NE 1.6 mph2.6 kmh 29.64 in1003.7 mb 0.04 in1.0 mm 0.00 in/hr0.0 mm/hr 0.13 in3.3 mm
07:07 AM 58.6°F14.8°C 58.4°F14.7°C 99% 0.3 mph NE0.5 kmh NE 2.2 mph3.5 kmh 29.64 in1003.7 mb 0.04 in1.0 mm 0.00 in/hr0.0 mm/hr 0.13 in3.3 mm
07:06 AM 58.6°F14.8°C 58.4°F14.7°C 99% 0.6 mph NE1.0 kmh NE 3.8 mph6.1 kmh 29.64 in1003.7 mb 0.04 in1.0 mm 0.00 in/hr0.0 mm/hr 0.13 in3.3 mm
07:05 AM 58.6°F14.8°C 58.4°F14.7°C 99% 1.0 mph NE1.6 kmh NE 3.8 mph6.1 kmh 29.64 in1003.7 mb 0.04 in1.0 mm 0.00 in/hr0.0 mm/hr 0.13 in3.3 mm
07:04 AM 58.6°F14.8°C 58.4°F14.7°C 99% 1.4 mph NNE2.3 kmh NNE 3.8 mph6.1 kmh 29.64 in1003.7 mb 0.04 in1.0 mm 0.00 in/hr0.0 mm/hr 0.13 in3.3 mm
07:03 AM 58.5°F14.7°C 58.2°F14.6°C 99% 1.7 mph NNE2.7 kmh NNE 3.8 mph6.1 kmh 29.64 in1003.7 mb 0.05 in1.3 mm 0.00 in/hr0.0 mm/hr 0.13 in3.3 mm
07:02 AM 58.5°F14.7°C 58.2°F14.6°C 99% 1.9 mph NNE3.1 kmh NNE 3.8 mph6.1 kmh 29.64 in1003.7 mb 0.05 in1.3 mm 0.00 in/hr0.0 mm/hr 0.13 in3.3 mm
07:01 AM 58.6°F14.8°C 58.4°F14.7°C 99% 2.1 mph NNE3.4 kmh NNE 3.8 mph6.1 kmh 29.64 in1003.7 mb 0.05 in1.3 mm 0.00 in/hr0.0 mm/hr 0.13 in3.3 mm
07:00 AM 58.5°F14.7°C 58.2°F14.6°C 99% 2.3 mph NNE3.7 kmh NNE 3.8 mph6.1 kmh 29.64 in1003.7 mb 0.05 in1.3 mm 0.00 in/hr0.0 mm/hr 0.13 in3.3 mm
06:59 AM 58.6°F14.8°C 58.4°F14.7°C 99% 2.3 mph NNE3.7 kmh NNE 3.8 mph6.1 kmh 29.63 in1003.4 mb 0.05 in1.3 mm 0.60 in/hr15.2 mm/hr 0.13 in3.3 mm
06:58 AM 58.8°F14.9°C 58.6°F14.8°C 99% 2.2 mph NNE3.5 kmh NNE 3.8 mph6.1 kmh 29.64 in1003.7 mb 0.04 in1.0 mm 0.00 in/hr0.0 mm/hr 0.12 in3.0 mm
06:57 AM 58.5°F14.7°C 58.2°F14.6°C 99% 1.9 mph NNE3.1 kmh NNE 3.8 mph6.1 kmh 29.64 in1003.7 mb 0.04 in1.0 mm 0.00 in/hr0.0 mm/hr 0.12 in3.0 mm
06:56 AM 58.6°F14.8°C 58.4°F14.7°C 99% 1.6 mph NNE2.6 kmh NNE 3.8 mph6.1 kmh 29.64 in1003.7 mb 0.04 in1.0 mm 0.00 in/hr0.0 mm/hr 0.12 in3.0 mm
06:55 AM 58.6°F14.8°C 58.4°F14.7°C 99% 1.5 mph NNE2.4 kmh NNE 3.8 mph6.1 kmh 29.64 in1003.7 mb 0.04 in1.0 mm 0.00 in/hr0.0 mm/hr 0.12 in3.0 mm
06:54 AM 58.5°F14.7°C 58.2°F14.6°C 99% 1.3 mph NNE2.1 kmh NNE 3.8 mph6.1 kmh 29.64 in1003.7 mb 0.04 in1.0 mm 0.00 in/hr0.0 mm/hr 0.12 in3.0 mm
06:53 AM 58.6°F14.8°C 58.4°F14.7°C 99% 1.2 mph NE1.9 kmh NE 2.2 mph3.5 kmh 29.63 in1003.4 mb 0.04 in1.0 mm 0.00 in/hr0.0 mm/hr 0.12 in3.0 mm
06:52 AM 58.5°F14.7°C 58.2°F14.6°C 99% 1.0 mph NE1.6 kmh NE 2.2 mph3.5 kmh 29.63 in1003.4 mb 0.04 in1.0 mm 0.00 in/hr0.0 mm/hr 0.12 in3.0 mm
06:51 AM 58.5°F14.7°C 58.2°F14.6°C 99% 1.1 mph NNE1.8 kmh NNE 2.2 mph3.5 kmh 29.63 in1003.4 mb 0.04 in1.0 mm 0.00 in/hr0.0 mm/hr 0.12 in3.0 mm
06:50 AM 58.5°F14.7°C 58.2°F14.6°C 99% 1.1 mph NNE1.8 kmh NNE 2.2 mph3.5 kmh 29.63 in1003.4 mb 0.04 in1.0 mm 0.00 in/hr0.0 mm/hr 0.12 in3.0 mm
06:49 AM 58.6°F14.8°C 58.4°F14.7°C 99% 1.4 mph N2.3 kmh N 3.1 mph5.0 kmh 29.63 in1003.4 mb 0.04 in1.0 mm 0.00 in/hr0.0 mm/hr 0.12 in3.0 mm
06:48 AM 58.6°F14.8°C 58.4°F14.7°C 99% 1.7 mph N2.7 kmh N 3.8 mph6.1 kmh 29.63 in1003.4 mb 0.04 in1.0 mm 0.00 in/hr0.0 mm/hr 0.12 in3.0 mm
06:47 AM 58.8°F14.9°C 58.6°F14.8°C 99% 2.0 mph N3.2 kmh N 3.8 mph6.1 kmh 29.63 in1003.4 mb 0.04 in1.0 mm 0.00 in/hr0.0 mm/hr 0.12 in3.0 mm
06:46 AM 58.8°F14.9°C 58.6°F14.8°C 99% 2.4 mph N3.9 kmh N 4.5 mph7.2 kmh 29.63 in1003.4 mb 0.04 in1.0 mm 0.00 in/hr0.0 mm/hr 0.12 in3.0 mm
06:45 AM 58.8°F14.9°C 58.6°F14.8°C 99% 2.4 mph N3.9 kmh N 4.5 mph7.2 kmh 29.63 in1003.4 mb 0.04 in1.0 mm 0.00 in/hr0.0 mm/hr 0.12 in3.0 mm
06:44 AM 58.8°F14.9°C 58.6°F14.8°C 99% 2.2 mph N3.5 kmh N 4.5 mph7.2 kmh 29.63 in1003.4 mb 0.04 in1.0 mm 0.00 in/hr0.0 mm/hr 0.12 in3.0 mm
06:43 AM 58.6°F14.8°C 58.4°F14.7°C 99% 2.0 mph N3.2 kmh N 4.5 mph7.2 kmh 29.63 in1003.4 mb 0.04 in1.0 mm 0.00 in/hr0.0 mm/hr 0.12 in3.0 mm
06:42 AM 58.8°F14.9°C 58.6°F14.8°C 99% 2.0 mph N3.2 kmh N 4.5 mph7.2 kmh 29.63 in1003.4 mb 0.04 in1.0 mm 0.00 in/hr0.0 mm/hr 0.12 in3.0 mm
06:41 AM 58.6°F14.8°C 58.4°F14.7°C 99% 2.1 mph N3.4 kmh N 4.5 mph7.2 kmh 29.63 in1003.4 mb 0.04 in1.0 mm 0.00 in/hr0.0 mm/hr 0.12 in3.0 mm
06:40 AM 58.8°F14.9°C 58.6°F14.8°C 99% 2.1 mph N3.4 kmh N 4.5 mph7.2 kmh 29.63 in1003.4 mb 0.04 in1.0 mm 0.00 in/hr0.0 mm/hr 0.12 in3.0 mm
06:39 AM 59.0°F15.0°C 58.7°F14.8°C 99% 1.9 mph N3.1 kmh N 4.5 mph7.2 kmh 29.62 in1003.0 mb 0.04 in1.0 mm 0.00 in/hr0.0 mm/hr 0.12 in3.0 mm
06:38 AM 58.6°F14.8°C 58.4°F14.7°C 99% 1.8 mph N2.9 kmh N 4.5 mph7.2 kmh 29.62 in1003.0 mb 0.04 in1.0 mm 0.00 in/hr0.0 mm/hr 0.12 in3.0 mm
06:37 AM 58.8°F14.9°C 58.6°F14.8°C 99% 1.7 mph N2.7 kmh N 4.5 mph7.2 kmh 29.63 in1003.4 mb 0.04 in1.0 mm 0.00 in/hr0.0 mm/hr 0.12 in3.0 mm
06:36 AM 58.6°F14.8°C 58.4°F14.7°C 99% 1.7 mph N2.7 kmh N 4.5 mph7.2 kmh 29.63 in1003.4 mb 0.04 in1.0 mm 0.00 in/hr0.0 mm/hr 0.12 in3.0 mm
06:35 AM 58.6°F14.8°C 58.4°F14.7°C 99% 1.7 mph N2.7 kmh N 3.8 mph6.1 kmh 29.62 in1003.0 mb 0.04 in1.0 mm 0.00 in/hr0.0 mm/hr 0.12 in3.0 mm
06:34 AM 58.6°F14.8°C 58.4°F14.7°C 99% 2.0 mph N3.2 kmh N 3.8 mph6.1 kmh 29.62 in1003.0 mb 0.04 in1.0 mm 0.00 in/hr0.0 mm/hr 0.12 in3.0 mm
06:33 AM 58.6°F14.8°C 58.4°F14.7°C 99% 2.3 mph N3.7 kmh N 3.8 mph6.1 kmh 29.62 in1003.0 mb 0.04 in1.0 mm 0.00 in/hr0.0 mm/hr 0.12 in3.0 mm
06:32 AM 58.6°F14.8°C 58.4°F14.7°C 99% 2.6 mph N4.2 kmh N 3.8 mph6.1 kmh 29.62 in1003.0 mb 0.04 in1.0 mm 0.00 in/hr0.0 mm/hr 0.12 in3.0 mm
06:31 AM 58.6°F14.8°C 58.4°F14.7°C 99% 2.6 mph N4.2 kmh N 3.8 mph6.1 kmh 29.62 in1003.0 mb 0.04 in1.0 mm 0.00 in/hr0.0 mm/hr 0.12 in3.0 mm
06:30 AM 58.8°F14.9°C 58.6°F14.8°C 99% 2.8 mph N4.5 kmh N 4.5 mph7.2 kmh 29.62 in1003.0 mb 0.04 in1.0 mm 0.00 in/hr0.0 mm/hr 0.12 in3.0 mm
06:29 AM 58.6°F14.8°C 58.4°F14.7°C 99% 3.2 mph N5.1 kmh N 5.4 mph8.7 kmh 29.62 in1003.0 mb 0.04 in1.0 mm 0.00 in/hr0.0 mm/hr 0.12 in3.0 mm
06:28 AM 58.8°F14.9°C 58.6°F14.8°C 99% 3.5 mph N5.6 kmh N 5.4 mph8.7 kmh 29.62 in1003.0 mb 0.04 in1.0 mm 0.00 in/hr0.0 mm/hr 0.12 in3.0 mm
06:27 AM 58.8°F14.9°C 58.6°F14.8°C 99% 3.9 mph N6.3 kmh N 6.0 mph9.7 kmh 29.62 in1003.0 mb 0.04 in1.0 mm 0.00 in/hr0.0 mm/hr 0.12 in3.0 mm
06:26 AM 58.8°F14.9°C 58.6°F14.8°C 99% 4.2 mph N6.8 kmh N 7.6 mph12.2 kmh 29.62 in1003.0 mb 0.04 in1.0 mm 0.00 in/hr0.0 mm/hr 0.12 in3.0 mm
06:25 AM 59.0°F15.0°C 58.7°F14.8°C 99% 4.6 mph N7.4 kmh N 7.6 mph12.2 kmh 29.63 in1003.4 mb 0.04 in1.0 mm 0.00 in/hr0.0 mm/hr 0.12 in3.0 mm
06:24 AM 58.8°F14.9°C 58.6°F14.8°C 99% 5.0 mph N8.0 kmh N 7.6 mph12.2 kmh 29.63 in1003.4 mb 0.04 in1.0 mm 0.00 in/hr0.0 mm/hr 0.12 in3.0 mm
06:23 AM 59.0°F15.0°C 58.7°F14.8°C 99% 5.1 mph N8.2 kmh N 7.6 mph12.2 kmh 29.62 in1003.0 mb 0.04 in1.0 mm 1.20 in/hr30.5 mm/hr 0.12 in3.0 mm
06:22 AM 59.0°F15.0°C 58.7°F14.8°C 99% 5.2 mph N8.4 kmh N 7.6 mph12.2 kmh 29.62 in1003.0 mb 0.02 in0.5 mm 0.00 in/hr0.0 mm/hr 0.11 in2.8 mm
06:21 AM 58.8°F14.9°C 58.6°F14.8°C 99% 5.5 mph N8.9 kmh N 7.6 mph12.2 kmh 29.62 in1003.0 mb 0.02 in0.5 mm 0.00 in/hr0.0 mm/hr 0.11 in2.8 mm
06:20 AM 59.0°F15.0°C 58.7°F14.8°C 99% 5.5 mph N8.9 kmh N 7.6 mph12.2 kmh 29.62 in1003.0 mb 0.02 in0.5 mm 0.00 in/hr0.0 mm/hr 0.11 in2.8 mm
06:19 AM 59.0°F15.0°C 58.7°F14.8°C 99% 5.2 mph N8.4 kmh N 7.6 mph12.2 kmh 29.63 in1003.4 mb 0.02 in0.5 mm 0.00 in/hr0.0 mm/hr 0.11 in2.8 mm
06:18 AM 59.0°F15.0°C 58.7°F14.8°C 99% 4.8 mph N7.7 kmh N 7.6 mph12.2 kmh 29.62 in1003.0 mb 0.02 in0.5 mm 0.00 in/hr0.0 mm/hr 0.11 in2.8 mm
06:17 AM 59.2°F15.1°C 58.9°F14.9°C 99% 4.5 mph N7.2 kmh N 7.6 mph12.2 kmh 29.62 in1003.0 mb 0.02 in0.5 mm 0.00 in/hr0.0 mm/hr 0.11 in2.8 mm
06:16 AM 59.0°F15.0°C 58.7°F14.8°C 99% 3.8 mph N6.1 kmh N 7.6 mph12.2 kmh 29.62 in1003.0 mb 0.02 in0.5 mm 0.00 in/hr0.0 mm/hr 0.11 in2.8 mm
06:15 AM 59.2°F15.1°C 58.9°F14.9°C 99% 3.1 mph N5.0 kmh N 6.9 mph11.1 kmh 29.62 in1003.0 mb 0.02 in0.5 mm 0.00 in/hr0.0 mm/hr 0.11 in2.8 mm
06:14 AM 59.2°F15.1°C 58.9°F14.9°C 99% 2.5 mph N4.0 kmh N 6.9 mph11.1 kmh 29.62 in1003.0 mb 0.02 in0.5 mm 0.00 in/hr0.0 mm/hr 0.11 in2.8 mm
06:13 AM 59.4°F15.2°C 59.1°F15.1°C 99% 2.1 mph NNW3.4 kmh NNW 6.9 mph11.1 kmh 29.62 in1003.0 mb 0.02 in0.5 mm 0.60 in/hr15.2 mm/hr 0.11 in2.8 mm
06:12 AM 59.2°F15.1°C 58.9°F14.9°C 99% 1.6 mph NNW2.6 kmh NNW 6.9 mph11.1 kmh 29.62 in1003.0 mb 0.01 in0.3 mm 0.00 in/hr0.0 mm/hr 0.09 in2.3 mm
06:11 AM 59.4°F15.2°C 59.1°F15.1°C 99% 1.0 mph NW1.6 kmh NW 6.9 mph11.1 kmh 29.62 in1003.0 mb 0.01 in0.3 mm 0.00 in/hr0.0 mm/hr 0.09 in2.3 mm
06:10 AM 59.4°F15.2°C 59.1°F15.1°C 99% 0.6 mph NW1.0 kmh NW 2.2 mph3.5 kmh 29.62 in1003.0 mb 0.01 in0.3 mm 0.00 in/hr0.0 mm/hr 0.09 in2.3 mm
06:09 AM 59.5°F15.3°C 59.3°F15.2°C 99% 0.4 mph NW0.6 kmh NW 2.2 mph3.5 kmh 29.62 in1003.0 mb 0.01 in0.3 mm 0.00 in/hr0.0 mm/hr 0.09 in2.3 mm
06:08 AM 59.5°F15.3°C 59.3°F15.2°C 99% 0.2 mph NW0.3 kmh NW 2.2 mph3.5 kmh 29.62 in1003.0 mb 0.01 in0.3 mm 0.00 in/hr0.0 mm/hr 0.09 in2.3 mm
06:07 AM 59.4°F15.2°C 59.1°F15.1°C 99% Calm Calm 2.2 mph3.5 kmh 29.62 in1003.0 mb 0.01 in0.3 mm 0.00 in/hr0.0 mm/hr 0.09 in2.3 mm
06:06 AM 59.5°F15.3°C 59.3°F15.2°C 99% Calm Calm -- 29.62 in1003.0 mb 0.01 in0.3 mm 0.00 in/hr0.0 mm/hr 0.09 in2.3 mm
06:05 AM 59.4°F15.2°C 59.1°F15.1°C 99% Calm Calm -- 29.62 in1003.0 mb 0.01 in0.3 mm 0.00 in/hr0.0 mm/hr 0.09 in2.3 mm
06:04 AM 59.4°F15.2°C 59.1°F15.1°C 99% Calm Calm -- 29.62 in1003.0 mb 0.01 in0.3 mm 0.60 in/hr15.2 mm/hr 0.09 in2.3 mm
06:03 AM 59.5°F15.3°C 59.3°F15.2°C 99% Calm Calm -- 29.62 in1003.0 mb 0.00 in0.0 mm 0.00 in/hr0.0 mm/hr 0.08 in2.0 mm
06:02 AM 59.4°F15.2°C 59.1°F15.1°C 99% Calm Calm -- 29.62 in1003.0 mb 0.00 in0.0 mm 0.00 in/hr0.0 mm/hr 0.08 in2.0 mm
06:01 AM 59.5°F15.3°C 59.3°F15.2°C 99% Calm Calm -- 29.62 in1003.0 mb 0.00 in0.0 mm 0.00 in/hr0.0 mm/hr 0.08 in2.0 mm
06:00 AM 59.5°F15.3°C 59.3°F15.2°C 99% Calm Calm -- 29.62 in1003.0 mb 0.00 in0.0 mm 0.00 in/hr0.0 mm/hr 0.08 in2.0 mm
05:59 AM 59.5°F15.3°C 59.3°F15.2°C 99% Calm Calm -- 29.62 in1003.0 mb 0.00 in0.0 mm 0.00 in/hr0.0 mm/hr 0.08 in2.0 mm
05:58 AM 59.4°F15.2°C 59.1°F15.1°C 99% Calm Calm -- 29.62 in1003.0 mb 0.00 in0.0 mm 0.00 in/hr0.0 mm/hr 0.08 in2.0 mm
05:57 AM 59.4°F15.2°C 59.1°F15.1°C 99% Calm Calm -- 29.62 in1003.0 mb 0.01 in0.3 mm 0.00 in/hr0.0 mm/hr 0.08 in2.0 mm
05:56 AM 59.5°F15.3°C 59.3°F15.2°C 99% Calm Calm -- 29.62 in1003.0 mb 0.01 in0.3 mm 0.00 in/hr0.0 mm/hr 0.08 in2.0 mm
05:55 AM 59.5°F15.3°C 59.3°F15.2°C 99% Calm Calm -- 29.62 in1003.0 mb 0.01 in0.3 mm 0.00 in/hr0.0 mm/hr 0.08 in2.0 mm
05:54 AM 59.4°F15.2°C 59.1°F15.1°C 99% Calm Calm -- 29.62 in1003.0 mb 0.01 in0.3 mm 0.00 in/hr0.0 mm/hr 0.08 in2.0 mm
05:53 AM 59.4°F15.2°C 59.1°F15.1°C 99% Calm Calm -- 29.62 in1003.0 mb 0.01 in0.3 mm 0.00 in/hr0.0 mm/hr 0.08 in2.0 mm
05:52 AM 59.5°F15.3°C 59.3°F15.2°C 99% Calm Calm -- 29.62 in1003.0 mb 0.01 in0.3 mm 0.00 in/hr0.0 mm/hr 0.08 in2.0 mm
05:51 AM 59.4°F15.2°C 59.1°F15.1°C 99% Calm Calm -- 29.62 in1003.0 mb 0.01 in0.3 mm 0.00 in/hr0.0 mm/hr 0.08 in2.0 mm
05:50 AM 59.4°F15.2°C 59.1°F15.1°C 99% Calm Calm -- 29.62 in1003.0 mb 0.01 in0.3 mm 0.00 in/hr0.0 mm/hr 0.08 in2.0 mm
05:49 AM 59.4°F15.2°C 59.1°F15.1°C 99% Calm Calm -- 29.62 in1003.0 mb 0.01 in0.3 mm 0.00 in/hr0.0 mm/hr 0.08 in2.0 mm
05:48 AM 59.2°F15.1°C 58.9°F14.9°C 99% Calm Calm -- 29.62 in1003.0 mb 0.01 in0.3 mm 0.00 in/hr0.0 mm/hr 0.08 in2.0 mm
05:47 AM 59.4°F15.2°C 59.1°F15.1°C 99% Calm Calm -- 29.62 in1003.0 mb 0.01 in0.3 mm 0.00 in/hr0.0 mm/hr 0.08 in2.0 mm
05:46 AM 59.2°F15.1°C 58.9°F14.9°C 99% Calm Calm -- 29.62 in1003.0 mb 0.01 in0.3 mm 0.00 in/hr0.0 mm/hr 0.08 in2.0 mm
05:45 AM 59.2°F15.1°C 58.9°F14.9°C 99% Calm Calm -- 29.62 in1003.0 mb 0.01 in0.3 mm 0.00 in/hr0.0 mm/hr 0.08 in2.0 mm
05:44 AM 59.4°F15.2°C 59.1°F15.1°C 99% Calm Calm -- 29.62 in1003.0 mb 0.01 in0.3 mm 0.00 in/hr0.0 mm/hr 0.08 in2.0 mm
05:43 AM 59.2°F15.1°C 58.9°F14.9°C 99% Calm Calm -- 29.62 in1003.0 mb 0.02 in0.5 mm 0.00 in/hr0.0 mm/hr 0.08 in2.0 mm
05:42 AM 59.5°F15.3°C 59.3°F15.2°C 99% Calm Calm -- 29.62 in1003.0 mb 0.02 in0.5 mm 0.00 in/hr0.0 mm/hr 0.08 in2.0 mm
05:41 AM 59.4°F15.2°C 59.1°F15.1°C 99% Calm Calm -- 29.62 in1003.0 mb 0.02 in0.5 mm 0.00 in/hr0.0 mm/hr 0.08 in2.0 mm
05:40 AM 59.4°F15.2°C 59.1°F15.1°C 99% Calm Calm -- 29.62 in1003.0 mb 0.02 in0.5 mm 0.00 in/hr0.0 mm/hr 0.08 in2.0 mm
05:39 AM 59.2°F15.1°C 58.9°F14.9°C 99% Calm Calm -- 29.62 in1003.0 mb 0.02 in0.5 mm 0.00 in/hr0.0 mm/hr 0.08 in2.0 mm
05:38 AM 59.2°F15.1°C 58.9°F14.9°C 99% Calm Calm -- 29.62 in1003.0 mb 0.02 in0.5 mm 0.00 in/hr0.0 mm/hr 0.08 in2.0 mm
05:37 AM 59.4°F15.2°C 59.1°F15.1°C 99% Calm Calm -- 29.62 in1003.0 mb 0.02 in0.5 mm 0.00 in/hr0.0 mm/hr 0.08 in2.0 mm
05:36 AM 59.4°F15.2°C 59.1°F15.1°C 99% Calm Calm -- 29.62 in1003.0 mb 0.04 in1.0 mm 0.00 in/hr0.0 mm/hr 0.08 in2.0 mm
05:35 AM 59.2°F15.1°C 58.9°F14.9°C 99% Calm Calm -- 29.62 in1003.0 mb 0.04 in1.0 mm 0.00 in/hr0.0 mm/hr 0.08 in2.0 mm
05:34 AM 59.2°F15.1°C 58.9°F14.9°C 99% Calm Calm -- 29.62 in1003.0 mb 0.04 in1.0 mm 0.00 in/hr0.0 mm/hr 0.08 in2.0 mm
05:33 AM 59.2°F15.1°C 58.9°F14.9°C 99% Calm Calm -- 29.62 in1003.0 mb 0.04 in1.0 mm 0.00 in/hr0.0 mm/hr 0.08 in2.0 mm
05:32 AM 59.0°F15.0°C 58.7°F14.8°C 99% Calm Calm -- 29.62 in1003.0 mb 0.04 in1.0 mm 0.00 in/hr0.0 mm/hr 0.08 in2.0 mm
05:31 AM 59.2°F15.1°C 58.9°F14.9°C 99% Calm Calm -- 29.62 in1003.0 mb 0.04 in1.0 mm 0.00 in/hr0.0 mm/hr 0.08 in2.0 mm
05:30 AM 59.2°F15.1°C 58.9°F14.9°C 99% Calm Calm -- 29.62 in1003.0 mb 0.04 in1.0 mm 0.00 in/hr0.0 mm/hr 0.08 in2.0 mm
05:29 AM 59.2°F15.1°C 58.9°F14.9°C 99% Calm Calm -- 29.62 in1003.0 mb 0.05 in1.3 mm 0.00 in/hr0.0 mm/hr 0.08 in2.0 mm
05:28 AM 59.2°F15.1°C 58.9°F14.9°C 99% Calm Calm -- 29.62 in1003.0 mb 0.05 in1.3 mm 0.00 in/hr0.0 mm/hr 0.08 in2.0 mm
05:27 AM 59.2°F15.1°C 58.9°F14.9°C 99% Calm Calm -- 29.62 in1003.0 mb 0.05 in1.3 mm 0.00 in/hr0.0 mm/hr 0.08 in2.0 mm
05:26 AM 59.2°F15.1°C 58.9°F14.9°C 99% Calm Calm -- 29.62 in1003.0 mb 0.05 in1.3 mm 0.00 in/hr0.0 mm/hr 0.08 in2.0 mm
05:25 AM 59.2°F15.1°C 58.9°F14.9°C 99% Calm Calm -- 29.62 in1003.0 mb 0.05 in1.3 mm 0.00 in/hr0.0 mm/hr 0.08 in2.0 mm
05:24 AM 59.0°F15.0°C 58.7°F14.8°C 99% Calm Calm -- 29.62 in1003.0 mb 0.05 in1.3 mm 0.00 in/hr0.0 mm/hr 0.08 in2.0 mm
05:23 AM 59.2°F15.1°C 58.9°F14.9°C 99% Calm Calm -- 29.62 in1003.0 mb 0.05 in1.3 mm 0.00 in/hr0.0 mm/hr 0.08 in2.0 mm
05:22 AM 59.2°F15.1°C 58.9°F14.9°C 99% Calm Calm -- 29.62 in1003.0 mb 0.06 in1.5 mm 0.00 in/hr0.0 mm/hr 0.08 in2.0 mm
05:21 AM 59.4°F15.2°C 59.1°F15.1°C 99% Calm Calm -- 29.62 in1003.0 mb 0.06 in1.5 mm 0.00 in/hr0.0 mm/hr 0.08 in2.0 mm
05:20 AM 59.0°F15.0°C 58.7°F14.8°C 99% Calm Calm -- 29.62 in1003.0 mb 0.06 in1.5 mm 0.00 in/hr0.0 mm/hr 0.08 in2.0 mm
05:19 AM 59.2°F15.1°C 58.9°F14.9°C 99% Calm Calm -- 29.61 in1002.7 mb 0.06 in1.5 mm 0.00 in/hr0.0 mm/hr 0.08 in2.0 mm
05:18 AM 59.2°F15.1°C 58.9°F14.9°C 99% Calm Calm -- 29.62 in1003.0 mb 0.06 in1.5 mm 0.00 in/hr0.0 mm/hr 0.08 in2.0 mm
05:17 AM 59.4°F15.2°C 59.1°F15.1°C 99% Calm Calm -- 29.62 in1003.0 mb 0.07 in1.8 mm 0.00 in/hr0.0 mm/hr 0.08 in2.0 mm
05:16 AM 59.2°F15.1°C 58.9°F14.9°C 99% Calm Calm -- 29.62 in1003.0 mb 0.07 in1.8 mm 0.00 in/hr0.0 mm/hr 0.08 in2.0 mm
05:15 AM 59.0°F15.0°C 58.7°F14.8°C 99% Calm Calm -- 29.62 in1003.0 mb 0.07 in1.8 mm 0.00 in/hr0.0 mm/hr 0.08 in2.0 mm
05:14 AM 59.2°F15.1°C 58.9°F14.9°C 99% Calm Calm -- 29.61 in1002.7 mb 0.07 in1.8 mm 0.00 in/hr0.0 mm/hr 0.08 in2.0 mm
05:13 AM 59.4°F15.2°C 59.1°F15.1°C 99% Calm Calm -- 29.61 in1002.7 mb 0.07 in1.8 mm 0.00 in/hr0.0 mm/hr 0.08 in2.0 mm
05:12 AM 59.4°F15.2°C 59.1°F15.1°C 99% Calm Calm -- 29.61 in1002.7 mb 0.07 in1.8 mm 0.00 in/hr0.0 mm/hr 0.08 in2.0 mm
05:11 AM 59.2°F15.1°C 58.9°F14.9°C 99% Calm Calm -- 29.62 in1003.0 mb 0.07 in1.8 mm 0.00 in/hr0.0 mm/hr 0.08 in2.0 mm
05:10 AM 59.4°F15.2°C 59.1°F15.1°C 99% Calm Calm -- 29.61 in1002.7 mb 0.07 in1.8 mm 0.00 in/hr0.0 mm/hr 0.08 in2.0 mm
05:09 AM 59.0°F15.0°C 58.7°F14.8°C 99% Calm Calm -- 29.62 in1003.0 mb 0.07 in1.8 mm 0.00 in/hr0.0 mm/hr 0.08 in2.0 mm
05:08 AM 59.2°F15.1°C 58.9°F14.9°C 99% Calm Calm -- 29.62 in1003.0 mb 0.07 in1.8 mm 0.00 in/hr0.0 mm/hr 0.08 in2.0 mm
05:07 AM 59.2°F15.1°C 58.9°F14.9°C 99% Calm Calm -- 29.61 in1002.7 mb 0.07 in1.8 mm 0.00 in/hr0.0 mm/hr 0.08 in2.0 mm
05:06 AM 59.2°F15.1°C 58.9°F14.9°C 99% Calm Calm -- 29.61 in1002.7 mb 0.07 in1.8 mm 0.00 in/hr0.0 mm/hr 0.08 in2.0 mm
05:05 AM 59.0°F15.0°C 58.7°F14.8°C 99% Calm Calm -- 29.61 in1002.7 mb 0.08 in2.0 mm 0.00 in/hr0.0 mm/hr 0.08 in2.0 mm
05:04 AM 59.0°F15.0°C 58.7°F14.8°C 99% Calm Calm -- 29.61 in1002.7 mb 0.08 in2.0 mm 0.00 in/hr0.0 mm/hr 0.08 in2.0 mm
05:03 AM 59.4°F15.2°C 59.1°F15.1°C 99% Calm Calm -- 29.61 in1002.7 mb 0.08 in2.0 mm 0.00 in/hr0.0 mm/hr 0.08 in2.0 mm
05:02 AM 59.0°F15.0°C 58.7°F14.8°C 99% Calm Calm -- 29.61 in1002.7 mb 0.08 in2.0 mm 0.00 in/hr0.0 mm/hr 0.08 in2.0 mm
05:01 AM 59.2°F15.1°C 58.9°F14.9°C 99% Calm Calm -- 29.61 in1002.7 mb 0.08 in2.0 mm 0.00 in/hr0.0 mm/hr 0.08 in2.0 mm
05:00 AM 59.0°F15.0°C 58.7°F14.8°C 99% Calm Calm -- 29.61 in1002.7 mb 0.08 in2.0 mm 0.00 in/hr0.0 mm/hr 0.08 in2.0 mm
04:59 AM 59.4°F15.2°C 59.1°F15.1°C 99% Calm Calm -- 29.61 in1002.7 mb 0.08 in2.0 mm 0.60 in/hr15.2 mm/hr 0.08 in2.0 mm
04:58 AM 59.2°F15.1°C 58.9°F14.9°C 99% Calm Calm -- 29.61 in1002.7 mb 0.07 in1.8 mm 0.00 in/hr0.0 mm/hr 0.07 in1.8 mm
04:57 AM 59.2°F15.1°C 58.9°F14.9°C 99% Calm Calm -- 29.61 in1002.7 mb 0.07 in1.8 mm 0.00 in/hr0.0 mm/hr 0.07 in1.8 mm
04:56 AM 59.4°F15.2°C 59.1°F15.1°C 99% Calm Calm -- 29.61 in1002.7 mb 0.07 in1.8 mm 0.00 in/hr0.0 mm/hr 0.07 in1.8 mm
04:55 AM 59.2°F15.1°C 58.9°F14.9°C 99% Calm Calm -- 29.62 in1003.0 mb 0.07 in1.8 mm 0.00 in/hr0.0 mm/hr 0.07 in1.8 mm
04:54 AM 59.2°F15.1°C 58.9°F14.9°C 99% Calm Calm -- 29.61 in1002.7 mb 0.07 in1.8 mm 0.00 in/hr0.0 mm/hr 0.07 in1.8 mm
04:53 AM 59.2°F15.1°C 58.9°F14.9°C 99% Calm Calm -- 29.61 in1002.7 mb 0.07 in1.8 mm 0.00 in/hr0.0 mm/hr 0.07 in1.8 mm
04:52 AM 59.4°F15.2°C 59.1°F15.1°C 99% Calm Calm -- 29.61 in1002.7 mb 0.07 in1.8 mm 0.00 in/hr0.0 mm/hr 0.07 in1.8 mm
04:51 AM 59.2°F15.1°C 58.9°F14.9°C 99% Calm Calm -- 29.61 in1002.7 mb 0.07 in1.8 mm 0.00 in/hr0.0 mm/hr 0.07 in1.8 mm
04:50 AM 59.4°F15.2°C 59.1°F15.1°C 99% Calm Calm -- 29.61 in1002.7 mb 0.07 in1.8 mm 0.00 in/hr0.0 mm/hr 0.07 in1.8 mm
04:49 AM 59.2°F15.1°C 58.9°F14.9°C 99% Calm Calm -- 29.61 in1002.7 mb 0.07 in1.8 mm 0.00 in/hr0.0 mm/hr 0.07 in1.8 mm
04:48 AM 59.2°F15.1°C 58.9°F14.9°C 99% Calm Calm -- 29.61 in1002.7 mb 0.07 in1.8 mm 0.00 in/hr0.0 mm/hr 0.07 in1.8 mm
04:47 AM 59.2°F15.1°C 58.6°F14.8°C 98% 0.2 mph N0.3 kmh N 2.2 mph3.5 kmh 29.61 in1002.7 mb 0.07 in1.8 mm 0.00 in/hr0.0 mm/hr 0.07 in1.8 mm
04:46 AM 59.2°F15.1°C 58.3°F14.6°C 97% 0.4 mph N0.6 kmh N 2.2 mph3.5 kmh 29.61 in1002.7 mb 0.07 in1.8 mm 0.00 in/hr0.0 mm/hr 0.07 in1.8 mm
04:45 AM 59.2°F15.1°C 58.3°F14.6°C 97% 0.6 mph N1.0 kmh N 2.2 mph3.5 kmh 29.61 in1002.7 mb 0.07 in1.8 mm 0.60 in/hr15.2 mm/hr 0.07 in1.8 mm
04:44 AM 59.2°F15.1°C 58.3°F14.6°C 97% 0.9 mph N1.4 kmh N 4.5 mph7.2 kmh 29.61 in1002.7 mb 0.06 in1.5 mm 0.00 in/hr0.0 mm/hr 0.06 in1.5 mm
04:43 AM 59.2°F15.1°C 58.3°F14.6°C 97% 1.4 mph N2.3 kmh N 5.4 mph8.7 kmh 29.61 in1002.7 mb 0.06 in1.5 mm 0.00 in/hr0.0 mm/hr 0.06 in1.5 mm
04:42 AM 59.2°F15.1°C 58.1°F14.5°C 96% 1.9 mph N3.1 kmh N 5.4 mph8.7 kmh 29.61 in1002.7 mb 0.06 in1.5 mm 0.00 in/hr0.0 mm/hr 0.06 in1.5 mm
04:41 AM 59.2°F15.1°C 58.1°F14.5°C 96% 2.3 mph N3.7 kmh N 5.4 mph8.7 kmh 29.61 in1002.7 mb 0.06 in1.5 mm 0.00 in/hr0.0 mm/hr 0.06 in1.5 mm
04:40 AM 59.4°F15.2°C 58.2°F14.6°C 96% 2.6 mph N4.2 kmh N 5.4 mph8.7 kmh 29.61 in1002.7 mb 0.06 in1.5 mm 0.00 in/hr0.0 mm/hr 0.06 in1.5 mm
04:39 AM 59.4°F15.2°C 58.2°F14.6°C 96% 2.9 mph N4.7 kmh N 5.4 mph8.7 kmh 29.61 in1002.7 mb 0.06 in1.5 mm 0.00 in/hr0.0 mm/hr 0.06 in1.5 mm
04:38 AM 59.4°F15.2°C 58.2°F14.6°C 96% 3.2 mph N5.1 kmh N 5.4 mph8.7 kmh 29.61 in1002.7 mb 0.06 in1.5 mm 0.00 in/hr0.0 mm/hr 0.06 in1.5 mm
04:37 AM 59.4°F15.2°C 58.2°F14.6°C 96% 3.3 mph N5.3 kmh N 5.4 mph8.7 kmh 29.61 in1002.7 mb 0.06 in1.5 mm 0.60 in/hr15.2 mm/hr 0.06 in1.5 mm
04:36 AM 59.4°F15.2°C 58.2°F14.6°C 96% 3.3 mph N5.3 kmh N 5.4 mph8.7 kmh 29.61 in1002.7 mb 0.05 in1.3 mm 0.00 in/hr0.0 mm/hr 0.05 in1.3 mm
04:35 AM 59.7°F15.4°C 58.9°F14.9°C 97% 3.4 mph N5.5 kmh N 5.4 mph8.7 kmh 29.62 in1003.0 mb 0.05 in1.3 mm 0.00 in/hr0.0 mm/hr 0.05 in1.3 mm
04:34 AM 59.2°F15.1°C 58.1°F14.5°C 96% 3.5 mph N5.6 kmh N 5.4 mph8.7 kmh 29.62 in1003.0 mb 0.05 in1.3 mm 0.00 in/hr0.0 mm/hr 0.05 in1.3 mm
04:33 AM 59.5°F15.3°C 58.4°F14.7°C 96% 3.6 mph N5.8 kmh N 6.0 mph9.7 kmh 29.61 in1002.7 mb 0.05 in1.3 mm 0.00 in/hr0.0 mm/hr 0.05 in1.3 mm
04:32 AM 59.5°F15.3°C 58.7°F14.8°C 97% 3.6 mph N5.8 kmh N 6.9 mph11.1 kmh 29.61 in1002.7 mb 0.05 in1.3 mm 0.00 in/hr0.0 mm/hr 0.05 in1.3 mm
04:31 AM 59.7°F15.4°C 58.9°F14.9°C 97% 3.9 mph N6.3 kmh N 6.9 mph11.1 kmh 29.62 in1003.0 mb 0.05 in1.3 mm 0.00 in/hr0.0 mm/hr 0.05 in1.3 mm
04:30 AM 59.7°F15.4°C 58.6°F14.8°C 96% 4.2 mph N6.8 kmh N 6.9 mph11.1 kmh 29.61 in1002.7 mb 0.05 in1.3 mm 0.60 in/hr15.2 mm/hr 0.05 in1.3 mm
04:29 AM 59.9°F15.5°C 58.8°F14.9°C 96% 4.5 mph N7.2 kmh N 6.9 mph11.1 kmh 29.61 in1002.7 mb 0.04 in1.0 mm 0.00 in/hr0.0 mm/hr 0.04 in1.0 mm
04:28 AM 59.9°F15.5°C 58.5°F14.7°C 95% 4.9 mph N7.9 kmh N 7.6 mph12.2 kmh 29.61 in1002.7 mb 0.04 in1.0 mm 0.00 in/hr0.0 mm/hr 0.04 in1.0 mm
04:27 AM 59.9°F15.5°C 58.5°F14.7°C 95% 5.3 mph N8.5 kmh N 7.6 mph12.2 kmh 29.61 in1002.7 mb 0.04 in1.0 mm 0.00 in/hr0.0 mm/hr 0.04 in1.0 mm
04:26 AM 60.1°F15.6°C 58.7°F14.8°C 95% 5.9 mph N9.5 kmh N 8.3 mph13.4 kmh 29.61 in1002.7 mb 0.04 in1.0 mm 0.00 in/hr0.0 mm/hr 0.04 in1.0 mm
04:25 AM 59.7°F15.4°C 58.3°F14.6°C 95% 6.3 mph N10.1 kmh N 8.3 mph13.4 kmh 29.61 in1002.7 mb 0.04 in1.0 mm 0.00 in/hr0.0 mm/hr 0.04 in1.0 mm
04:24 AM 59.9°F15.5°C 58.5°F14.7°C 95% 6.7 mph N10.8 kmh N 8.3 mph13.4 kmh 29.61 in1002.7 mb 0.04 in1.0 mm 0.00 in/hr0.0 mm/hr 0.04 in1.0 mm
04:23 AM 59.9°F15.5°C 58.5°F14.7°C 95% 7.0 mph N11.3 kmh N 8.3 mph13.4 kmh 29.61 in1002.7 mb 0.04 in1.0 mm 1.20 in/hr30.5 mm/hr 0.04 in1.0 mm
04:22 AM 59.9°F15.5°C 58.5°F14.7°C 95% 6.9 mph N11.1 kmh N 8.3 mph13.4 kmh 29.61 in1002.7 mb 0.02 in0.5 mm 0.00 in/hr0.0 mm/hr 0.02 in0.5 mm
04:21 AM 60.1°F15.6°C 58.4°F14.7°C 94% 6.7 mph N10.8 kmh N 8.3 mph13.4 kmh 29.61 in1002.7 mb 0.02 in0.5 mm 0.00 in/hr0.0 mm/hr 0.02 in0.5 mm
04:20 AM 60.1°F15.6°C 58.7°F14.8°C 95% 6.2 mph N10.0 kmh N 8.3 mph13.4 kmh 29.61 in1002.7 mb 0.02 in0.5 mm 0.00 in/hr0.0 mm/hr 0.02 in0.5 mm
04:19 AM 60.6°F15.9°C 58.9°F14.9°C 94% 5.8 mph N9.3 kmh N 8.3 mph13.4 kmh 29.61 in1002.7 mb 0.02 in0.5 mm 0.60 in/hr15.2 mm/hr 0.02 in0.5 mm
04:18 AM 60.3°F15.7°C 58.5°F14.7°C 94% 5.8 mph N9.3 kmh N 8.3 mph13.4 kmh 29.61 in1002.7 mb 0.01 in0.3 mm 0.00 in/hr0.0 mm/hr 0.01 in0.3 mm
04:17 AM 60.3°F15.7°C 58.5°F14.7°C 94% 5.5 mph N8.9 kmh N 8.3 mph13.4 kmh 29.61 in1002.7 mb 0.01 in0.3 mm 0.00 in/hr0.0 mm/hr 0.01 in0.3 mm
04:16 AM 60.3°F15.7°C 58.5°F14.7°C 94% 5.1 mph NNE8.2 kmh NNE 8.3 mph13.4 kmh 29.61 in1002.7 mb 0.01 in0.3 mm 0.00 in/hr0.0 mm/hr 0.01 in0.3 mm
04:15 AM 60.3°F15.7°C 58.5°F14.7°C 94% 4.5 mph NNE7.2 kmh NNE 8.3 mph13.4 kmh 29.61 in1002.7 mb 0.01 in0.3 mm 0.00 in/hr0.0 mm/hr 0.01 in0.3 mm
04:14 AM 60.6°F15.9°C 58.6°F14.8°C 93% 4.1 mph NNE6.6 kmh NNE 8.3 mph13.4 kmh 29.61 in1002.7 mb 0.01 in0.3 mm 0.00 in/hr0.0 mm/hr 0.01 in0.3 mm
04:13 AM 60.8°F16.0°C 58.8°F14.9°C 93% 3.8 mph NE6.1 kmh NE 6.0 mph9.7 kmh 29.61 in1002.7 mb 0.01 in0.3 mm 0.00 in/hr0.0 mm/hr 0.01 in0.3 mm
04:12 AM 60.8°F16.0°C 58.5°F14.7°C 92% 3.7 mph NE6.0 kmh NE 6.0 mph9.7 kmh 29.61 in1002.7 mb 0.01 in0.3 mm 0.00 in/hr0.0 mm/hr 0.01 in0.3 mm
04:11 AM 60.8°F16.0°C 58.2°F14.6°C 91% 3.7 mph NE6.0 kmh NE 6.0 mph9.7 kmh 29.61 in1002.7 mb 0.01 in0.3 mm 0.00 in/hr0.0 mm/hr 0.01 in0.3 mm
04:10 AM 61.2°F16.2°C 58.2°F14.6°C 90% 3.9 mph NE6.3 kmh NE 6.0 mph9.7 kmh 29.61 in1002.7 mb 0.01 in0.3 mm 0.00 in/hr0.0 mm/hr 0.01 in0.3 mm
04:09 AM 61.2°F16.2°C 58.2°F14.6°C 90% 4.0 mph NE6.4 kmh NE 6.9 mph11.1 kmh 29.61 in1002.7 mb 0.01 in0.3 mm 0.00 in/hr0.0 mm/hr 0.01 in0.3 mm
04:08 AM 61.3°F16.3°C 58.1°F14.5°C 89% 3.7 mph NE6.0 kmh NE 6.9 mph11.1 kmh 29.61 in1002.7 mb 0.01 in0.3 mm 0.00 in/hr0.0 mm/hr 0.01 in0.3 mm
04:07 AM 61.3°F16.3°C 57.8°F14.3°C 88% 3.7 mph NE6.0 kmh NE 6.9 mph11.1 kmh 29.61 in1002.7 mb 0.01 in0.3 mm 0.60 in/hr15.2 mm/hr 0.01 in0.3 mm
04:06 AM 61.5°F16.4°C 57.6°F14.2°C 87% 3.7 mph NE6.0 kmh NE 6.9 mph11.1 kmh 29.61 in1002.7 mb 0.00 in0.0 mm 0.00 in/hr0.0 mm/hr 0.00 in0.0 mm
04:05 AM 61.7°F16.5°C 57.5°F14.2°C 86% 4.0 mph NE6.4 kmh NE 6.9 mph11.1 kmh 29.61 in1002.7 mb 0.00 in0.0 mm 0.00 in/hr0.0 mm/hr 0.00 in0.0 mm
04:04 AM 61.9°F16.6°C 57.7°F14.3°C 86% 4.2 mph NE6.8 kmh NE 6.9 mph11.1 kmh 29.61 in1002.7 mb 0.00 in0.0 mm 0.00 in/hr0.0 mm/hr 0.00 in0.0 mm
04:03 AM 61.9°F16.6°C 57.7°F14.3°C 86% 4.1 mph NE6.6 kmh NE 6.9 mph11.1 kmh 29.60 in1002.4 mb 0.00 in0.0 mm 0.00 in/hr0.0 mm/hr 0.00 in0.0 mm
04:02 AM 62.1°F16.7°C 57.5°F14.2°C 85% 4.1 mph NE6.6 kmh NE 6.9 mph11.1 kmh 29.61 in1002.7 mb 0.00 in0.0 mm 0.00 in/hr0.0 mm/hr 0.00 in0.0 mm
04:01 AM 62.2°F16.8°C 57.4°F14.1°C 84% 4.3 mph NE6.9 kmh NE 6.9 mph11.1 kmh 29.60 in1002.4 mb 0.00 in0.0 mm 0.00 in/hr0.0 mm/hr 0.00 in0.0 mm
04:00 AM 62.4°F16.9°C 57.2°F14.0°C 83% 4.5 mph NE7.2 kmh NE 6.9 mph11.1 kmh 29.60 in1002.4 mb 0.00 in0.0 mm 0.00 in/hr0.0 mm/hr 0.00 in0.0 mm
03:59 AM 62.4°F16.9°C 57.2°F14.0°C 83% 4.5 mph NE7.2 kmh NE 6.9 mph11.1 kmh 29.60 in1002.4 mb 0.00 in0.0 mm 0.00 in/hr0.0 mm/hr 0.00 in0.0 mm
03:58 AM 62.8°F17.1°C 57.2°F14.0°C 82% 4.9 mph NE7.9 kmh NE 6.9 mph11.1 kmh 29.60 in1002.4 mb 0.00 in0.0 mm 0.00 in/hr0.0 mm/hr 0.00 in0.0 mm
03:57 AM 62.6°F17.0°C 56.7°F13.7°C 81% 5.1 mph NNE8.2 kmh NNE 7.6 mph12.2 kmh 29.60 in1002.4 mb 0.00 in0.0 mm 0.00 in/hr0.0 mm/hr 0.00 in0.0 mm
03:56 AM 62.8°F17.1°C 56.9°F13.8°C 81% 5.2 mph NNE8.4 kmh NNE 7.6 mph12.2 kmh 29.60 in1002.4 mb 0.00 in0.0 mm 0.00 in/hr0.0 mm/hr 0.00 in0.0 mm
03:55 AM 62.4°F16.9°C 56.5°F13.6°C 81% 5.0 mph NNE8.0 kmh NNE 7.6 mph12.2 kmh 29.60 in1002.4 mb 0.00 in0.0 mm 0.00 in/hr0.0 mm/hr 0.00 in0.0 mm
03:54 AM 63.0°F17.2°C 56.7°F13.7°C 80% 4.9 mph NNE7.9 kmh NNE 7.6 mph12.2 kmh 29.60 in1002.4 mb 0.00 in0.0 mm 0.00 in/hr0.0 mm/hr 0.00 in0.0 mm
03:53 AM 63.1°F17.3°C 56.9°F13.8°C 80% 5.1 mph NNE8.2 kmh NNE 7.6 mph12.2 kmh 29.60 in1002.4 mb 0.00 in0.0 mm 0.00 in/hr0.0 mm/hr 0.00 in0.0 mm
03:52 AM 63.0°F17.2°C 56.4°F13.6°C 79% 5.2 mph NNE8.4 kmh NNE 7.6 mph12.2 kmh 29.60 in1002.4 mb 0.00 in0.0 mm 0.00 in/hr0.0 mm/hr 0.00 in0.0 mm
03:51 AM 63.1°F17.3°C 56.5°F13.6°C 79% 4.8 mph N7.7 kmh N 7.6 mph12.2 kmh 29.60 in1002.4 mb 0.00 in0.0 mm 0.00 in/hr0.0 mm/hr 0.00 in0.0 mm
03:50 AM 63.1°F17.3°C 56.5°F13.6°C 79% 4.5 mph NNE7.2 kmh NNE 7.6 mph12.2 kmh 29.60 in1002.4 mb 0.00 in0.0 mm 0.00 in/hr0.0 mm/hr 0.00 in0.0 mm
03:49 AM 63.5°F17.5°C 56.9°F13.8°C 79% 4.4 mph NNE7.1 kmh NNE 7.6 mph12.2 kmh 29.60 in1002.4 mb 0.00 in0.0 mm 0.00 in/hr0.0 mm/hr 0.00 in0.0 mm
03:48 AM 63.1°F17.3°C 56.5°F13.6°C 79% 4.3 mph NNE6.9 kmh NNE 7.6 mph12.2 kmh 29.60 in1002.4 mb 0.00 in0.0 mm 0.00 in/hr0.0 mm/hr 0.00 in0.0 mm
03:47 AM 63.5°F17.5°C 56.9°F13.8°C 79% 4.1 mph NNE6.6 kmh NNE 7.6 mph12.2 kmh 29.60 in1002.4 mb 0.00 in0.0 mm 0.00 in/hr0.0 mm/hr 0.00 in0.0 mm
03:46 AM 63.7°F17.6°C 56.7°F13.7°C 78% 4.3 mph NNE6.9 kmh NNE 7.6 mph12.2 kmh 29.60 in1002.4 mb 0.00 in0.0 mm 0.00 in/hr0.0 mm/hr 0.00 in0.0 mm
03:45 AM 63.7°F17.6°C 56.7°F13.7°C 78% 4.5 mph NNE7.2 kmh NNE 7.6 mph12.2 kmh 29.60 in1002.4 mb 0.00 in0.0 mm 0.00 in/hr0.0 mm/hr 0.00 in0.0 mm
03:44 AM 63.9°F17.7°C 56.9°F13.8°C 78% 4.6 mph NNE7.4 kmh NNE 7.6 mph12.2 kmh 29.60 in1002.4 mb 0.00 in0.0 mm 0.00 in/hr0.0 mm/hr 0.00 in0.0 mm
03:43 AM 63.5°F17.5°C 56.5°F13.6°C 78% 4.6 mph NNE7.4 kmh NNE 9.2 mph14.8 kmh 29.60 in1002.4 mb 0.00 in0.0 mm 0.00 in/hr0.0 mm/hr 0.00 in0.0 mm
03:42 AM 63.7°F17.6°C 56.0°F13.3°C 76% 4.8 mph NE7.7 kmh NE 9.2 mph14.8 kmh 29.60 in1002.4 mb 0.00 in0.0 mm 0.00 in/hr0.0 mm/hr 0.00 in0.0 mm
03:41 AM 63.9°F17.7°C 56.2°F13.4°C 76% 4.9 mph NE7.9 kmh NE 9.2 mph14.8 kmh 29.60 in1002.4 mb 0.00 in0.0 mm 0.00 in/hr0.0 mm/hr 0.00 in0.0 mm
03:40 AM 64.0°F17.8°C 56.3°F13.5°C 76% 5.0 mph NNE8.0 kmh NNE 9.2 mph14.8 kmh 29.60 in1002.4 mb 0.00 in0.0 mm 0.00 in/hr0.0 mm/hr 0.00 in0.0 mm
03:39 AM 64.0°F17.8°C 56.3°F13.5°C 76% 4.9 mph NE7.9 kmh NE 9.2 mph14.8 kmh 29.60 in1002.4 mb 0.00 in0.0 mm 0.00 in/hr0.0 mm/hr 0.00 in0.0 mm
03:38 AM 64.0°F17.8°C 56.0°F13.3°C 75% 4.8 mph NE7.7 kmh NE 9.2 mph14.8 kmh 29.60 in1002.4 mb 0.00 in0.0 mm 0.00 in/hr0.0 mm/hr 0.00 in0.0 mm
03:37 AM 64.0°F17.8°C 56.0°F13.3°C 75% 4.7 mph NE7.6 kmh NE 9.2 mph14.8 kmh 29.60 in1002.4 mb 0.00 in0.0 mm 0.00 in/hr0.0 mm/hr 0.00 in0.0 mm
03:36 AM 64.0°F17.8°C 55.6°F13.1°C 74% 4.3 mph NNE6.9 kmh NNE 9.2 mph14.8 kmh 29.60 in1002.4 mb 0.00 in0.0 mm 0.00 in/hr0.0 mm/hr 0.00 in0.0 mm
03:35 AM 64.0°F17.8°C 55.6°F13.1°C 74% 4.3 mph NE6.9 kmh NE 9.2 mph14.8 kmh 29.60 in1002.4 mb 0.00 in0.0 mm 0.00 in/hr0.0 mm/hr 0.00 in0.0 mm
03:34 AM 64.2°F17.9°C 55.8°F13.2°C 74% 4.4 mph NE7.1 kmh NE 9.2 mph14.8 kmh 29.59 in1002.0 mb 0.00 in0.0 mm 0.00 in/hr0.0 mm/hr 0.00 in0.0 mm
03:33 AM 64.4°F18.0°C 56.0°F13.3°C 74% 4.3 mph NE6.9 kmh NE 9.2 mph14.8 kmh 29.60 in1002.4 mb 0.00 in0.0 mm 0.00 in/hr0.0 mm/hr 0.00 in0.0 mm
03:32 AM 64.0°F17.8°C 55.6°F13.1°C 74% 4.3 mph NE6.9 kmh NE 7.6 mph12.2 kmh 29.60 in1002.4 mb 0.00 in0.0 mm 0.00 in/hr0.0 mm/hr 0.00 in0.0 mm
03:31 AM 64.2°F17.9°C 55.4°F13.0°C 73% 4.8 mph NNE7.7 kmh NNE 9.2 mph14.8 kmh 29.60 in1002.4 mb 0.00 in0.0 mm 0.00 in/hr0.0 mm/hr 0.00 in0.0 mm
03:30 AM 64.0°F17.8°C 55.2°F12.9°C 73% 5.2 mph NNE8.4 kmh NNE 9.2 mph14.8 kmh 29.60 in1002.4 mb 0.00 in0.0 mm 0.00 in/hr0.0 mm/hr 0.00 in0.0 mm
03:29 AM 64.2°F17.9°C 55.4°F13.0°C 73% 5.4 mph NNE8.7 kmh NNE 9.2 mph14.8 kmh 29.60 in1002.4 mb 0.00 in0.0 mm 0.00 in/hr0.0 mm/hr 0.00 in0.0 mm
03:28 AM 64.4°F18.0°C 55.6°F13.1°C 73% 5.5 mph NNE8.9 kmh NNE 9.2 mph14.8 kmh 29.60 in1002.4 mb 0.00 in0.0 mm 0.00 in/hr0.0 mm/hr 0.00 in0.0 mm
03:27 AM 64.2°F17.9°C 55.4°F13.0°C 73% 5.7 mph NNE9.2 kmh NNE 9.2 mph14.8 kmh 29.60 in1002.4 mb 0.00 in0.0 mm 0.00 in/hr0.0 mm/hr 0.00 in0.0 mm
03:26 AM 64.4°F18.0°C 55.6°F13.1°C 73% 5.9 mph NNE9.5 kmh NNE 9.2 mph14.8 kmh 29.60 in1002.4 mb 0.00 in0.0 mm 0.00 in/hr0.0 mm/hr 0.00 in0.0 mm
03:25 AM 64.4°F18.0°C 55.2°F12.9°C 72% 5.7 mph N9.2 kmh N 9.2 mph14.8 kmh 29.60 in1002.4 mb 0.00 in0.0 mm 0.00 in/hr0.0 mm/hr 0.00 in0.0 mm
03:24 AM 64.4°F18.0°C 55.2°F12.9°C 72% 5.9 mph NNE9.5 kmh NNE 9.2 mph14.8 kmh 29.60 in1002.4 mb 0.00 in0.0 mm 0.00 in/hr0.0 mm/hr 0.00 in0.0 mm
03:23 AM 64.4°F18.0°C 55.2°F12.9°C 72% 5.9 mph NNE9.5 kmh NNE 9.2 mph14.8 kmh 29.60 in1002.4 mb 0.00 in0.0 mm 0.00 in/hr0.0 mm/hr 0.00 in0.0 mm
03:22 AM 64.9°F18.3°C 55.3°F12.9°C 71% 5.9 mph NNE9.5 kmh NNE 9.2 mph14.8 kmh 29.60 in1002.4 mb 0.00 in0.0 mm 0.00 in/hr0.0 mm/hr 0.00 in0.0 mm
03:21 AM 64.8°F18.2°C 55.2°F12.9°C 71% 5.7 mph NNE9.2 kmh NNE 9.2 mph14.8 kmh 29.60 in1002.4 mb 0.00 in0.0 mm 0.00 in/hr0.0 mm/hr 0.00 in0.0 mm
03:20 AM 64.8°F18.2°C 54.8°F12.7°C 70% 5.4 mph NNE8.7 kmh NNE 8.3 mph13.4 kmh 29.60 in1002.4 mb 0.00 in0.0 mm 0.00 in/hr0.0 mm/hr 0.00 in0.0 mm
03:19 AM 64.9°F18.3°C 54.9°F12.7°C 70% 5.5 mph NNE8.9 kmh NNE 8.3 mph13.4 kmh 29.59 in1002.0 mb 0.00 in0.0 mm 0.00 in/hr0.0 mm/hr 0.00 in0.0 mm
03:18 AM 65.1°F18.4°C 54.7°F12.6°C 69% 5.7 mph NNE9.2 kmh NNE 8.3 mph13.4 kmh 29.60 in1002.4 mb 0.00 in0.0 mm 0.00 in/hr0.0 mm/hr 0.00 in0.0 mm
03:17 AM 65.1°F18.4°C 54.7°F12.6°C 69% 5.9 mph NNE9.5 kmh NNE 9.2 mph14.8 kmh 29.60 in1002.4 mb 0.00 in0.0 mm 0.00 in/hr0.0 mm/hr 0.00 in0.0 mm
03:16 AM 65.3°F18.5°C 54.9°F12.7°C 69% 6.1 mph NNE9.8 kmh NNE 9.2 mph14.8 kmh 29.60 in1002.4 mb 0.00 in0.0 mm 0.00 in/hr0.0 mm/hr 0.00 in0.0 mm
03:15 AM 65.1°F18.4°C 54.3°F12.4°C 68% 6.3 mph NNE10.1 kmh NNE 9.2 mph14.8 kmh 29.60 in1002.4 mb 0.00 in0.0 mm 0.00 in/hr0.0 mm/hr 0.00 in0.0 mm
03:14 AM 65.5°F18.6°C 54.3°F12.4°C 67% 6.1 mph NNE9.8 kmh NNE 9.2 mph14.8 kmh 29.61 in1002.7 mb 0.00 in0.0 mm 0.00 in/hr0.0 mm/hr 0.00 in0.0 mm
03:13 AM 65.7°F18.7°C 54.4°F12.4°C 67% 6.1 mph NNE9.8 kmh NNE 9.2 mph14.8 kmh 29.60 in1002.4 mb 0.00 in0.0 mm 0.00 in/hr0.0 mm/hr 0.00 in0.0 mm
03:12 AM 65.7°F18.7°C 54.4°F12.4°C 67% 5.9 mph N9.5 kmh N 9.2 mph14.8 kmh 29.60 in1002.4 mb 0.00 in0.0 mm 0.00 in/hr0.0 mm/hr 0.00 in0.0 mm
03:11 AM 65.7°F18.7°C 54.4°F12.4°C 67% 5.8 mph N9.3 kmh N 9.2 mph14.8 kmh 29.60 in1002.4 mb 0.00 in0.0 mm 0.00 in/hr0.0 mm/hr 0.00 in0.0 mm
03:10 AM 65.7°F18.7°C 54.4°F12.4°C 67% 5.5 mph N8.9 kmh N 9.2 mph14.8 kmh 29.60 in1002.4 mb 0.00 in0.0 mm 0.00 in/hr0.0 mm/hr 0.00 in0.0 mm
03:09 AM 65.5°F18.6°C 54.3°F12.4°C 67% 5.3 mph N8.5 kmh N 9.2 mph14.8 kmh 29.60 in1002.4 mb 0.00 in0.0 mm 0.00 in/hr0.0 mm/hr 0.00 in0.0 mm
03:08 AM 65.8°F18.8°C 54.6°F12.6°C 67% 4.9 mph N7.9 kmh N 9.2 mph14.8 kmh 29.60 in1002.4 mb 0.00 in0.0 mm 0.00 in/hr0.0 mm/hr 0.00 in0.0 mm
03:07 AM 65.7°F18.7°C 54.4°F12.4°C 67% 4.7 mph N7.6 kmh N 9.2 mph14.8 kmh 29.60 in1002.4 mb 0.00 in0.0 mm 0.00 in/hr0.0 mm/hr 0.00 in0.0 mm
03:06 AM 65.7°F18.7°C 54.4°F12.4°C 67% 4.6 mph NNE7.4 kmh NNE 7.6 mph12.2 kmh 29.60 in1002.4 mb 0.00 in0.0 mm 0.00 in/hr0.0 mm/hr 0.00 in0.0 mm
03:05 AM 65.8°F18.8°C 54.2°F12.3°C 66% 4.7 mph N7.6 kmh N 7.6 mph12.2 kmh 29.60 in1002.4 mb 0.00 in0.0 mm 0.00 in/hr0.0 mm/hr 0.00 in0.0 mm
03:04 AM 65.8°F18.8°C 54.6°F12.6°C 67% 5.0 mph NNE8.0 kmh NNE 7.6 mph12.2 kmh 29.60 in1002.4 mb 0.00 in0.0 mm 0.00 in/hr0.0 mm/hr 0.00 in0.0 mm
03:03 AM 65.8°F18.8°C 54.2°F12.3°C 66% 4.7 mph NNE7.6 kmh NNE 7.6 mph12.2 kmh 29.60 in1002.4 mb 0.00 in0.0 mm 0.00 in/hr0.0 mm/hr 0.00 in0.0 mm
03:02 AM 66.0°F18.9°C 54.8°F12.7°C 67% 4.7 mph NNE7.6 kmh NNE 7.6 mph12.2 kmh 29.60 in1002.4 mb 0.00 in0.0 mm 0.00 in/hr0.0 mm/hr 0.00 in0.0 mm
03:01 AM 65.8°F18.8°C 54.6°F12.6°C 67% 4.4 mph NNE7.1 kmh NNE 7.6 mph12.2 kmh 29.60 in1002.4 mb 0.00 in0.0 mm 0.00 in/hr0.0 mm/hr 0.00 in0.0 mm
03:00 AM 66.0°F18.9°C 54.8°F12.7°C 67% 4.5 mph NNE7.2 kmh NNE 7.6 mph12.2 kmh 29.60 in1002.4 mb 0.00 in0.0 mm 0.00 in/hr0.0 mm/hr 0.00 in0.0 mm
02:59 AM 66.2°F19.0°C 54.9°F12.7°C 67% 4.5 mph NNE7.2 kmh NNE 7.6 mph12.2 kmh 29.60 in1002.4 mb 0.00 in0.0 mm 0.00 in/hr0.0 mm/hr 0.00 in0.0 mm
02:58 AM 66.0°F18.9°C 54.8°F12.7°C 67% 4.3 mph NNE6.9 kmh NNE 7.6 mph12.2 kmh 29.60 in1002.4 mb 0.00 in0.0 mm 0.00 in/hr0.0 mm/hr 0.00 in0.0 mm
02:57 AM 65.8°F18.8°C 54.6°F12.6°C 67% 3.8 mph NNE6.1 kmh NNE 7.6 mph12.2 kmh 29.60 in1002.4 mb 0.00 in0.0 mm 0.00 in/hr0.0 mm/hr 0.00 in0.0 mm
02:56 AM 66.0°F18.9°C 54.8°F12.7°C 67% 3.1 mph NNE5.0 kmh NNE 7.6 mph12.2 kmh 29.60 in1002.4 mb 0.00 in0.0 mm 0.00 in/hr0.0 mm/hr 0.00 in0.0 mm
02:55 AM 65.8°F18.8°C 55.0°F12.8°C 68% 2.5 mph NNE4.0 kmh NNE 7.6 mph12.2 kmh 29.60 in1002.4 mb 0.00 in0.0 mm 0.00 in/hr0.0 mm/hr 0.00 in0.0 mm
02:54 AM 66.0°F18.9°C 56.0°F13.3°C 70% 1.8 mph NNE2.9 kmh NNE 4.5 mph7.2 kmh 29.60 in1002.4 mb 0.00 in0.0 mm 0.00 in/hr0.0 mm/hr 0.00 in0.0 mm
02:53 AM 66.0°F18.9°C 56.4°F13.6°C 71% 1.3 mph N2.1 kmh N 3.8 mph6.1 kmh 29.60 in1002.4 mb 0.00 in0.0 mm 0.00 in/hr0.0 mm/hr 0.00 in0.0 mm
02:52 AM 65.7°F18.7°C 56.0°F13.3°C 71% 1.0 mph NNE1.6 kmh NNE 3.8 mph6.1 kmh 29.60 in1002.4 mb 0.00 in0.0 mm 0.00 in/hr0.0 mm/hr 0.00 in0.0 mm
02:51 AM 65.8°F18.8°C 56.2°F13.4°C 71% 0.7 mph N1.1 kmh N 3.8 mph6.1 kmh 29.60 in1002.4 mb 0.00 in0.0 mm 0.00 in/hr0.0 mm/hr 0.00 in0.0 mm
02:50 AM 65.7°F18.7°C 56.4°F13.6°C 72% 0.4 mph N0.6 kmh N 3.8 mph6.1 kmh 29.60 in1002.4 mb 0.00 in0.0 mm 0.00 in/hr0.0 mm/hr 0.00 in0.0 mm
02:49 AM 65.7°F18.7°C 56.8°F13.8°C 73% 0.1 mph NE0.2 kmh NE 1.6 mph2.6 kmh 29.60 in1002.4 mb 0.00 in0.0 mm 0.00 in/hr0.0 mm/hr 0.00 in0.0 mm
02:48 AM 65.8°F18.8°C 57.0°F13.9°C 73% Calm Calm -- 29.60 in1002.4 mb 0.00 in0.0 mm 0.00 in/hr0.0 mm/hr 0.00 in0.0 mm
02:47 AM 65.7°F18.7°C 56.8°F13.8°C 73% Calm Calm -- 29.60 in1002.4 mb 0.00 in0.0 mm 0.00 in/hr0.0 mm/hr 0.00 in0.0 mm
02:46 AM 65.7°F18.7°C 56.8°F13.8°C 73% Calm Calm -- 29.60 in1002.4 mb 0.00 in0.0 mm 0.00 in/hr0.0 mm/hr 0.00 in0.0 mm
02:45 AM 65.5°F18.6°C 56.6°F13.7°C 73% Calm Calm -- 29.60 in1002.4 mb 0.00 in0.0 mm 0.00 in/hr0.0 mm/hr 0.00 in0.0 mm
02:44 AM 65.5°F18.6°C 56.6°F13.7°C 73% Calm Calm -- 29.60 in1002.4 mb 0.00 in0.0 mm 0.00 in/hr0.0 mm/hr 0.00 in0.0 mm
02:43 AM 65.7°F18.7°C 56.8°F13.8°C 73% Calm Calm -- 29.60 in1002.4 mb 0.00 in0.0 mm 0.00 in/hr0.0 mm/hr 0.00 in0.0 mm
02:42 AM 65.3°F18.5°C 56.4°F13.6°C 73% Calm Calm -- 29.60 in1002.4 mb 0.00 in0.0 mm 0.00 in/hr0.0 mm/hr 0.00 in0.0 mm
02:41 AM 65.3°F18.5°C 56.4°F13.6°C 73% Calm Calm -- 29.60 in1002.4 mb 0.00 in0.0 mm 0.00 in/hr0.0 mm/hr 0.00 in0.0 mm
02:40 AM 65.1°F18.4°C 56.3°F13.5°C 73% Calm Calm -- 29.60 in1002.4 mb 0.00 in0.0 mm 0.00 in/hr0.0 mm/hr 0.00 in0.0 mm
02:39 AM 65.7°F18.7°C 56.8°F13.8°C 73% Calm Calm -- 29.60 in1002.4 mb 0.00 in0.0 mm 0.00 in/hr0.0 mm/hr 0.00 in0.0 mm
02:38 AM 65.7°F18.7°C 56.8°F13.8°C 73% Calm Calm -- 29.60 in1002.4 mb 0.00 in0.0 mm 0.00 in/hr0.0 mm/hr 0.00 in0.0 mm
02:37 AM 65.5°F18.6°C 56.6°F13.7°C 73% Calm Calm -- 29.60 in1002.4 mb 0.00 in0.0 mm 0.00 in/hr0.0 mm/hr 0.00 in0.0 mm
02:36 AM 65.5°F18.6°C 56.6°F13.7°C 73% Calm Calm -- 29.60 in1002.4 mb 0.00 in0.0 mm 0.00 in/hr0.0 mm/hr 0.00 in0.0 mm
02:35 AM 65.3°F18.5°C 56.4°F13.6°C 73% Calm Calm -- 29.60 in1002.4 mb 0.00 in0.0 mm 0.00 in/hr0.0 mm/hr 0.00 in0.0 mm
02:34 AM 65.7°F18.7°C 56.8°F13.8°C 73% Calm Calm -- 29.60 in1002.4 mb 0.00 in0.0 mm 0.00 in/hr0.0 mm/hr 0.00 in0.0 mm
02:33 AM 65.8°F18.8°C 57.0°F13.9°C 73% Calm Calm -- 29.60 in1002.4 mb 0.00 in0.0 mm 0.00 in/hr0.0 mm/hr 0.00 in0.0 mm
02:32 AM 65.5°F18.6°C 56.6°F13.7°C 73% Calm Calm -- 29.60 in1002.4 mb 0.00 in0.0 mm 0.00 in/hr0.0 mm/hr 0.00 in0.0 mm
02:31 AM 65.3°F18.5°C 56.4°F13.6°C 73% Calm Calm -- 29.60 in1002.4 mb 0.00 in0.0 mm 0.00 in/hr0.0 mm/hr 0.00 in0.0 mm
02:30 AM 65.5°F18.6°C 56.6°F13.7°C 73% Calm Calm -- 29.60 in1002.4 mb 0.00 in0.0 mm 0.00 in/hr0.0 mm/hr 0.00 in0.0 mm
02:29 AM 65.3°F18.5°C 56.4°F13.6°C 73% Calm Calm -- 29.60 in1002.4 mb 0.00 in0.0 mm 0.00 in/hr0.0 mm/hr 0.00 in0.0 mm
02:28 AM 65.7°F18.7°C 56.8°F13.8°C 73% Calm Calm -- 29.60 in1002.4 mb 0.00 in0.0 mm 0.00 in/hr0.0 mm/hr 0.00 in0.0 mm
02:27 AM 65.8°F18.8°C 57.0°F13.9°C 73% Calm Calm -- 29.60 in1002.4 mb 0.00 in0.0 mm 0.00 in/hr0.0 mm/hr 0.00 in0.0 mm
02:26 AM 65.5°F18.6°C 56.6°F13.7°C 73% Calm Calm -- 29.59 in1002.0 mb 0.00 in0.0 mm 0.00 in/hr0.0 mm/hr 0.00 in0.0 mm
02:25 AM 65.5°F18.6°C 56.6°F13.7°C 73% Calm Calm -- 29.60 in1002.4 mb 0.00 in0.0 mm 0.00 in/hr0.0 mm/hr 0.00 in0.0 mm
02:24 AM 65.3°F18.5°C 56.4°F13.6°C 73% Calm Calm -- 29.60 in1002.4 mb 0.00 in0.0 mm 0.00 in/hr0.0 mm/hr 0.00 in0.0 mm
02:23 AM 65.5°F18.6°C 56.6°F13.7°C 73% Calm Calm -- 29.60 in1002.4 mb 0.00 in0.0 mm 0.00 in/hr0.0 mm/hr 0.00 in0.0 mm
02:22 AM 65.3°F18.5°C 56.4°F13.6°C 73% Calm Calm -- 29.59 in1002.0 mb 0.00 in0.0 mm 0.00 in/hr0.0 mm/hr 0.00 in0.0 mm
02:21 AM 65.3°F18.5°C 56.8°F13.8°C 74% Calm Calm -- 29.59 in1002.0 mb 0.00 in0.0 mm 0.00 in/hr0.0 mm/hr 0.00 in0.0 mm
02:20 AM 65.3°F18.5°C 56.8°F13.8°C 74% Calm Calm -- 29.59 in1002.0 mb 0.00 in0.0 mm 0.00 in/hr0.0 mm/hr 0.00 in0.0 mm
02:19 AM 65.3°F18.5°C 56.8°F13.8°C 74% Calm Calm -- 29.60 in1002.4 mb 0.00 in0.0 mm 0.00 in/hr0.0 mm/hr 0.00 in0.0 mm
02:18 AM 65.3°F18.5°C 56.8°F13.8°C 74% Calm Calm -- 29.60 in1002.4 mb 0.00 in0.0 mm 0.00 in/hr0.0 mm/hr 0.00 in0.0 mm
02:17 AM 65.3°F18.5°C 56.8°F13.8°C 74% Calm Calm -- 29.59 in1002.0 mb 0.00 in0.0 mm 0.00 in/hr0.0 mm/hr 0.00 in0.0 mm
02:16 AM 65.3°F18.5°C 56.8°F13.8°C 74% Calm Calm -- 29.59 in1002.0 mb 0.00 in0.0 mm 0.00 in/hr0.0 mm/hr 0.00 in0.0 mm
02:15 AM 65.1°F18.4°C 56.6°F13.7°C 74% Calm Calm -- 29.59 in1002.0 mb 0.00 in0.0 mm 0.00 in/hr0.0 mm/hr 0.00 in0.0 mm
02:14 AM 65.3°F18.5°C 56.8°F13.8°C 74% Calm Calm -- 29.59 in1002.0 mb 0.00 in0.0 mm 0.00 in/hr0.0 mm/hr 0.00 in0.0 mm
02:13 AM 65.3°F18.5°C 56.4°F13.6°C 73% Calm Calm -- 29.59 in1002.0 mb 0.00 in0.0 mm 0.00 in/hr0.0 mm/hr 0.00 in0.0 mm
02:12 AM 65.5°F18.6°C 56.6°F13.7°C 73% Calm Calm -- 29.59 in1002.0 mb 0.00 in0.0 mm 0.00 in/hr0.0 mm/hr 0.00 in0.0 mm
02:11 AM 65.3°F18.5°C 56.4°F13.6°C 73% Calm Calm -- 29.59 in1002.0 mb 0.00 in0.0 mm 0.00 in/hr0.0 mm/hr 0.00 in0.0 mm
02:10 AM 65.3°F18.5°C 56.4°F13.6°C 73% Calm Calm -- 29.59 in1002.0 mb 0.00 in0.0 mm 0.00 in/hr0.0 mm/hr 0.00 in0.0 mm
02:09 AM 65.5°F18.6°C 56.6°F13.7°C 73% Calm Calm -- 29.59 in1002.0 mb 0.00 in0.0 mm 0.00 in/hr0.0 mm/hr 0.00 in0.0 mm
02:08 AM 65.3°F18.5°C 56.4°F13.6°C 73% Calm Calm -- 29.59 in1002.0 mb 0.00 in0.0 mm 0.00 in/hr0.0 mm/hr 0.00 in0.0 mm
02:07 AM 65.1°F18.4°C 56.3°F13.5°C 73% Calm Calm -- 29.59 in1002.0 mb 0.00 in0.0 mm 0.00 in/hr0.0 mm/hr 0.00 in0.0 mm
02:06 AM 64.9°F18.3°C 56.1°F13.4°C 73% Calm Calm -- 29.59 in1002.0 mb 0.00 in0.0 mm 0.00 in/hr0.0 mm/hr 0.00 in0.0 mm
02:05 AM 65.3°F18.5°C 56.4°F13.6°C 73% Calm Calm -- 29.59 in1002.0 mb 0.00 in0.0 mm 0.00 in/hr0.0 mm/hr 0.00 in0.0 mm
02:04 AM 65.3°F18.5°C 56.4°F13.6°C 73% Calm Calm -- 29.59 in1002.0 mb 0.00 in0.0 mm 0.00 in/hr0.0 mm/hr 0.00 in0.0 mm
02:03 AM 65.5°F18.6°C 56.6°F13.7°C 73% Calm Calm -- 29.59 in1002.0 mb 0.00 in0.0 mm 0.00 in/hr0.0 mm/hr 0.00 in0.0 mm
02:02 AM 65.3°F18.5°C 56.4°F13.6°C 73% Calm Calm -- 29.59 in1002.0 mb 0.00 in0.0 mm 0.00 in/hr0.0 mm/hr 0.00 in0.0 mm
02:01 AM 65.3°F18.5°C 56.1°F13.4°C 72% Calm Calm -- 29.59 in1002.0 mb 0.00 in0.0 mm 0.00 in/hr0.0 mm/hr 0.00 in0.0 mm
02:00 AM 65.1°F18.4°C 55.9°F13.3°C 72% Calm Calm -- 29.59 in1002.0 mb 0.00 in0.0 mm 0.00 in/hr0.0 mm/hr 0.00 in0.0 mm
01:59 AM 65.3°F18.5°C 56.4°F13.6°C 73% Calm Calm -- 29.59 in1002.0 mb 0.00 in0.0 mm 0.00 in/hr0.0 mm/hr 0.00 in0.0 mm
01:58 AM 65.7°F18.7°C 56.8°F13.8°C 73% Calm Calm -- 29.59 in1002.0 mb 0.00 in0.0 mm 0.00 in/hr0.0 mm/hr 0.00 in0.0 mm
01:57 AM 65.7°F18.7°C 56.8°F13.8°C 73% Calm Calm -- 29.60 in1002.4 mb 0.00 in0.0 mm 0.00 in/hr0.0 mm/hr 0.00 in0.0 mm
01:56 AM 65.7°F18.7°C 56.4°F13.6°C 72% Calm Calm -- 29.60 in1002.4 mb 0.00 in0.0 mm 0.00 in/hr0.0 mm/hr 0.00 in0.0 mm
01:55 AM 65.7°F18.7°C 56.8°F13.8°C 73% Calm Calm -- 29.59 in1002.0 mb 0.00 in0.0 mm 0.00 in/hr0.0 mm/hr 0.00 in0.0 mm
01:54 AM 65.5°F18.6°C 56.2°F13.4°C 72% Calm Calm -- 29.59 in1002.0 mb 0.00 in0.0 mm 0.00 in/hr0.0 mm/hr 0.00 in0.0 mm
01:53 AM 65.3°F18.5°C 56.1°F13.4°C 72% Calm Calm -- 29.59 in1002.0 mb 0.00 in0.0 mm 0.00 in/hr0.0 mm/hr 0.00 in0.0 mm
01:52 AM 65.3°F18.5°C 56.1°F13.4°C 72% Calm Calm -- 29.59 in1002.0 mb 0.00 in0.0 mm 0.00 in/hr0.0 mm/hr 0.00 in0.0 mm
01:51 AM 65.5°F18.6°C 56.2°F13.4°C 72% Calm Calm -- 29.59 in1002.0 mb 0.00 in0.0 mm 0.00 in/hr0.0 mm/hr 0.00 in0.0 mm
01:50 AM 65.8°F18.8°C 57.0°F13.9°C 73% Calm Calm -- 29.59 in1002.0 mb 0.00 in0.0 mm 0.00 in/hr0.0 mm/hr 0.00 in0.0 mm
01:49 AM 65.5°F18.6°C 56.6°F13.7°C 73% Calm Calm -- 29.59 in1002.0 mb 0.00 in0.0 mm 0.00 in/hr0.0 mm/hr 0.00 in0.0 mm
01:48 AM 65.7°F18.7°C 56.8°F13.8°C 73% Calm Calm -- 29.59 in1002.0 mb 0.00 in0.0 mm 0.00 in/hr0.0 mm/hr 0.00 in0.0 mm
01:47 AM 65.7°F18.7°C 56.4°F13.6°C 72% Calm Calm -- 29.59 in1002.0 mb 0.00 in0.0 mm 0.00 in/hr0.0 mm/hr 0.00 in0.0 mm
01:46 AM 65.8°F18.8°C 57.0°F13.9°C 73% Calm Calm -- 29.59 in1002.0 mb 0.00 in0.0 mm 0.00 in/hr0.0 mm/hr 0.00 in0.0 mm
01:45 AM 65.5°F18.6°C 56.6°F13.7°C 73% Calm Calm -- 29.59 in1002.0 mb 0.00 in0.0 mm 0.00 in/hr0.0 mm/hr 0.00 in0.0 mm
01:44 AM 65.8°F18.8°C 56.6°F13.7°C 72% Calm Calm -- 29.59 in1002.0 mb 0.00 in0.0 mm 0.00 in/hr0.0 mm/hr 0.00 in0.0 mm
01:43 AM 65.7°F18.7°C 56.4°F13.6°C 72% Calm Calm -- 29.59 in1002.0 mb 0.00 in0.0 mm 0.00 in/hr0.0 mm/hr 0.00 in0.0 mm
01:42 AM 65.8°F18.8°C 56.2°F13.4°C 71% Calm Calm -- 29.59 in1002.0 mb 0.00 in0.0 mm 0.00 in/hr0.0 mm/hr 0.00 in0.0 mm
01:41 AM 65.8°F18.8°C 56.2°F13.4°C 71% Calm Calm -- 29.59 in1002.0 mb 0.00 in0.0 mm 0.00 in/hr0.0 mm/hr 0.00 in0.0 mm
01:40 AM 65.7°F18.7°C 56.0°F13.3°C 71% Calm Calm -- 29.59 in1002.0 mb 0.00 in0.0 mm 0.00 in/hr0.0 mm/hr 0.00 in0.0 mm
01:39 AM 65.5°F18.6°C 55.8°F13.2°C 71% Calm Calm -- 29.59 in1002.0 mb 0.00 in0.0 mm 0.00 in/hr0.0 mm/hr 0.00 in0.0 mm
01:38 AM 65.7°F18.7°C 56.0°F13.3°C 71% Calm Calm -- 29.59 in1002.0 mb 0.00 in0.0 mm 0.00 in/hr0.0 mm/hr 0.00 in0.0 mm
01:37 AM 65.8°F18.8°C 56.2°F13.4°C 71% Calm Calm -- 29.59 in1002.0 mb 0.00 in0.0 mm 0.00 in/hr0.0 mm/hr 0.00 in0.0 mm
01:36 AM 65.8°F18.8°C 56.2°F13.4°C 71% Calm Calm -- 29.59 in1002.0 mb 0.00 in0.0 mm 0.00 in/hr0.0 mm/hr 0.00 in0.0 mm
01:35 AM 66.0°F18.9°C 56.4°F13.6°C 71% Calm Calm -- 29.59 in1002.0 mb 0.00 in0.0 mm 0.00 in/hr0.0 mm/hr 0.00 in0.0 mm
01:34 AM 65.7°F18.7°C 56.0°F13.3°C 71% Calm Calm -- 29.59 in1002.0 mb 0.00 in0.0 mm 0.00 in/hr0.0 mm/hr 0.00 in0.0 mm
01:33 AM 65.8°F18.8°C 56.6°F13.7°C 72% Calm Calm 0.7 mph1.1 kmh 29.59 in1002.0 mb 0.00 in0.0 mm 0.00 in/hr0.0 mm/hr 0.00 in0.0 mm
01:32 AM 65.8°F18.8°C 56.6°F13.7°C 72% 0.2 mph N0.3 kmh N 1.6 mph2.6 kmh 29.59 in1002.0 mb 0.00 in0.0 mm 0.00 in/hr0.0 mm/hr 0.00 in0.0 mm
01:31 AM 65.8°F18.8°C 56.2°F13.4°C 71% 0.3 mph N0.5 kmh N 1.6 mph2.6 kmh 29.59 in1002.0 mb 0.00 in0.0 mm 0.00 in/hr0.0 mm/hr 0.00 in0.0 mm
01:30 AM 65.7°F18.7°C 56.4°F13.6°C 72% 0.5 mph N0.8 kmh N 1.6 mph2.6 kmh 29.59 in1002.0 mb 0.00 in0.0 mm 0.00 in/hr0.0 mm/hr 0.00 in0.0 mm
01:29 AM 65.8°F18.8°C 56.6°F13.7°C 72% 0.7 mph N1.1 kmh N 2.2 mph3.5 kmh 29.59 in1002.0 mb 0.00 in0.0 mm 0.00 in/hr0.0 mm/hr 0.00 in0.0 mm
01:28 AM 65.8°F18.8°C 56.6°F13.7°C 72% 0.8 mph N1.3 kmh N 2.2 mph3.5 kmh 29.59 in1002.0 mb 0.00 in0.0 mm 0.00 in/hr0.0 mm/hr 0.00 in0.0 mm
01:27 AM 65.8°F18.8°C 56.6°F13.7°C 72% 1.0 mph N1.6 kmh N 2.2 mph3.5 kmh 29.59 in1002.0 mb 0.00 in0.0 mm 0.00 in/hr0.0 mm/hr 0.00 in0.0 mm
01:26 AM 65.8°F18.8°C 56.6°F13.7°C 72% 1.3 mph N2.1 kmh N 2.2 mph3.5 kmh 29.59 in1002.0 mb 0.00 in0.0 mm 0.00 in/hr0.0 mm/hr 0.00 in0.0 mm
01:25 AM 65.7°F18.7°C 56.0°F13.3°C 71% 1.5 mph NNE2.4 kmh NNE 2.2 mph3.5 kmh 29.59 in1002.0 mb 0.00 in0.0 mm 0.00 in/hr0.0 mm/hr 0.00 in0.0 mm
01:24 AM 66.0°F18.9°C 56.4°F13.6°C 71% 1.7 mph NNE2.7 kmh NNE 2.2 mph3.5 kmh 29.59 in1002.0 mb 0.00 in0.0 mm 0.00 in/hr0.0 mm/hr 0.00 in0.0 mm
01:23 AM 66.0°F18.9°C 56.4°F13.6°C 71% 1.8 mph NNE2.9 kmh NNE 2.2 mph3.5 kmh 29.59 in1002.0 mb 0.00 in0.0 mm 0.00 in/hr0.0 mm/hr 0.00 in0.0 mm
01:22 AM 65.8°F18.8°C 56.2°F13.4°C 71% 1.9 mph NNE3.1 kmh NNE 2.2 mph3.5 kmh 29.59 in1002.0 mb 0.00 in0.0 mm 0.00 in/hr0.0 mm/hr 0.00 in0.0 mm
01:21 AM 66.0°F18.9°C 56.4°F13.6°C 71% 1.9 mph NNE3.1 kmh NNE 2.2 mph3.5 kmh 29.59 in1002.0 mb 0.00 in0.0 mm 0.00 in/hr0.0 mm/hr 0.00 in0.0 mm
01:20 AM 66.0°F18.9°C 56.4°F13.6°C 71% 2.0 mph NNE3.2 kmh NNE 2.2 mph3.5 kmh 29.59 in1002.0 mb 0.00 in0.0 mm 0.00 in/hr0.0 mm/hr 0.00 in0.0 mm
01:19 AM 66.0°F18.9°C 56.8°F13.8°C 72% 2.0 mph NE3.2 kmh NE 2.2 mph3.5 kmh 29.59 in1002.0 mb 0.00 in0.0 mm 0.00 in/hr0.0 mm/hr 0.00 in0.0 mm
01:18 AM 66.0°F18.9°C 56.4°F13.6°C 71% 2.1 mph NE3.4 kmh NE 2.2 mph3.5 kmh 29.59 in1002.0 mb 0.00 in0.0 mm 0.00 in/hr0.0 mm/hr 0.00 in0.0 mm
01:17 AM 66.4°F19.1°C 56.7°F13.7°C 71% 1.9 mph NE3.1 kmh NE 2.2 mph3.5 kmh 29.58 in1001.7 mb 0.00 in0.0 mm 0.00 in/hr0.0 mm/hr 0.00 in0.0 mm
01:16 AM 66.0°F18.9°C 56.4°F13.6°C 71% 1.7 mph NE2.7 kmh NE 2.2 mph3.5 kmh 29.58 in1001.7 mb 0.00 in0.0 mm 0.00 in/hr0.0 mm/hr 0.00 in0.0 mm
01:15 AM 66.0°F18.9°C 56.4°F13.6°C 71% 1.5 mph NE2.4 kmh NE 2.2 mph3.5 kmh 29.59 in1002.0 mb 0.00 in0.0 mm 0.00 in/hr0.0 mm/hr 0.00 in0.0 mm
01:14 AM 66.0°F18.9°C 56.4°F13.6°C 71% 1.3 mph NE2.1 kmh NE 2.2 mph3.5 kmh 29.58 in1001.7 mb 0.00 in0.0 mm 0.00 in/hr0.0 mm/hr 0.00 in0.0 mm
01:13 AM 66.4°F19.1°C 56.7°F13.7°C 71% 1.2 mph NE1.9 kmh NE 2.2 mph3.5 kmh 29.58 in1001.7 mb 0.00 in0.0 mm 0.00 in/hr0.0 mm/hr 0.00 in0.0 mm
01:12 AM 66.0°F18.9°C 56.4°F13.6°C 71% 1.1 mph NE1.8 kmh NE 2.2 mph3.5 kmh 29.58 in1001.7 mb 0.00 in0.0 mm 0.00 in/hr0.0 mm/hr 0.00 in0.0 mm
01:11 AM 66.0°F18.9°C 56.4°F13.6°C 71% 1.0 mph NNE1.6 kmh NNE 2.2 mph3.5 kmh 29.58 in1001.7 mb 0.00 in0.0 mm 0.00 in/hr0.0 mm/hr 0.00 in0.0 mm
01:10 AM 66.2°F19.0°C 56.5°F13.6°C 71% 0.9 mph NNE1.4 kmh NNE 2.2 mph3.5 kmh 29.58 in1001.7 mb 0.00 in0.0 mm 0.00 in/hr0.0 mm/hr 0.00 in0.0 mm
01:09 AM 66.2°F19.0°C 56.5°F13.6°C 71% 0.9 mph N1.4 kmh N 2.2 mph3.5 kmh 29.58 in1001.7 mb 0.00 in0.0 mm 0.00 in/hr0.0 mm/hr 0.00 in0.0 mm
01:08 AM 66.0°F18.9°C 56.4°F13.6°C 71% 0.7 mph N1.1 kmh N 2.2 mph3.5 kmh 29.58 in1001.7 mb 0.00 in0.0 mm 0.00 in/hr0.0 mm/hr 0.00 in0.0 mm
01:07 AM 66.2°F19.0°C 56.1°F13.4°C 70% 0.6 mph N1.0 kmh N 2.2 mph3.5 kmh 29.58 in1001.7 mb 0.00 in0.0 mm 0.00 in/hr0.0 mm/hr 0.00 in0.0 mm
01:06 AM 66.0°F18.9°C 56.0°F13.3°C 70% 0.8 mph N1.3 kmh N 2.2 mph3.5 kmh 29.58 in1001.7 mb 0.00 in0.0 mm 0.00 in/hr0.0 mm/hr 0.00 in0.0 mm
01:05 AM 66.2°F19.0°C 56.1°F13.4°C 70% 0.9 mph N1.4 kmh N 2.2 mph3.5 kmh 29.59 in1002.0 mb 0.00 in0.0 mm 0.00 in/hr0.0 mm/hr 0.00 in0.0 mm
01:04 AM 66.2°F19.0°C 56.1°F13.4°C 70% 1.0 mph N1.6 kmh N 2.2 mph3.5 kmh 29.59 in1002.0 mb 0.00 in0.0 mm 0.00 in/hr0.0 mm/hr 0.00 in0.0 mm
01:03 AM 66.2°F19.0°C 56.1°F13.4°C 70% 1.3 mph N2.1 kmh N 3.1 mph5.0 kmh 29.58 in1001.7 mb 0.00 in0.0 mm 0.00 in/hr0.0 mm/hr 0.00 in0.0 mm
01:02 AM 66.2°F19.0°C 56.1°F13.4°C 70% 1.3 mph N2.1 kmh N 3.1 mph5.0 kmh 29.58 in1001.7 mb 0.00 in0.0 mm 0.00 in/hr0.0 mm/hr 0.00 in0.0 mm
01:01 AM 66.0°F18.9°C 56.0°F13.3°C 70% 1.3 mph N2.1 kmh N 3.1 mph5.0 kmh 29.58 in1001.7 mb 0.00 in0.0 mm 0.00 in/hr0.0 mm/hr 0.00 in0.0 mm
01:00 AM 66.0°F18.9°C 56.0°F13.3°C 70% 1.3 mph NNE2.1 kmh NNE 3.1 mph5.0 kmh 29.58 in1001.7 mb 0.00 in0.0 mm 0.00 in/hr0.0 mm/hr 0.00 in0.0 mm
12:59 AM 66.2°F19.0°C 56.5°F13.6°C 71% 1.4 mph NNE2.3 kmh NNE 3.1 mph5.0 kmh 29.58 in1001.7 mb 0.00 in0.0 mm 0.00 in/hr0.0 mm/hr 0.00 in0.0 mm
12:58 AM 66.4°F19.1°C 56.3°F13.5°C 70% 1.3 mph NNE2.1 kmh NNE 3.1 mph5.0 kmh 29.58 in1001.7 mb 0.00 in0.0 mm 0.00 in/hr0.0 mm/hr 0.00 in0.0 mm
12:57 AM 66.0°F18.9°C 56.4°F13.6°C 71% 1.3 mph NNE2.1 kmh NNE 3.1 mph5.0 kmh 29.58 in1001.7 mb 0.00 in0.0 mm 0.00 in/hr0.0 mm/hr 0.00 in0.0 mm
12:56 AM 66.2°F19.0°C 56.5°F13.6°C 71% 1.2 mph NNE1.9 kmh NNE 3.1 mph5.0 kmh 29.58 in1001.7 mb 0.00 in0.0 mm 0.00 in/hr0.0 mm/hr 0.00 in0.0 mm
12:55 AM 66.0°F18.9°C 56.4°F13.6°C 71% 1.0 mph NE1.6 kmh NE 3.1 mph5.0 kmh 29.58 in1001.7 mb 0.00 in0.0 mm 0.00 in/hr0.0 mm/hr 0.00 in0.0 mm
12:54 AM 65.8°F18.8°C 55.8°F13.2°C 70% 0.9 mph NE1.4 kmh NE 3.1 mph5.0 kmh 29.58 in1001.7 mb 0.00 in0.0 mm 0.00 in/hr0.0 mm/hr 0.00 in0.0 mm
12:53 AM 66.0°F18.9°C 56.0°F13.3°C 70% 0.7 mph NE1.1 kmh NE 2.2 mph3.5 kmh 29.58 in1001.7 mb 0.00 in0.0 mm 0.00 in/hr0.0 mm/hr 0.00 in0.0 mm
12:52 AM 66.0°F18.9°C 56.0°F13.3°C 70% 0.6 mph NE1.0 kmh NE 2.2 mph3.5 kmh 29.58 in1001.7 mb 0.00 in0.0 mm 0.00 in/hr0.0 mm/hr 0.00 in0.0 mm
12:51 AM 66.2°F19.0°C 56.1°F13.4°C 70% 0.4 mph NE0.6 kmh NE 2.2 mph3.5 kmh 29.58 in1001.7 mb 0.00 in0.0 mm 0.00 in/hr0.0 mm/hr 0.00 in0.0 mm
12:50 AM 66.4°F19.1°C 56.3°F13.5°C 70% 0.2 mph NE0.3 kmh NE 2.2 mph3.5 kmh 29.58 in1001.7 mb 0.00 in0.0 mm 0.00 in/hr0.0 mm/hr 0.00 in0.0 mm
12:49 AM 66.2°F19.0°C 56.1°F13.4°C 70% 0.1 mph NE0.2 kmh NE 0.7 mph1.1 kmh 29.58 in1001.7 mb 0.00 in0.0 mm 0.00 in/hr0.0 mm/hr 0.00 in0.0 mm
12:48 AM 66.0°F18.9°C 56.0°F13.3°C 70% Calm Calm 0.7 mph1.1 kmh 29.58 in1001.7 mb 0.00 in0.0 mm 0.00 in/hr0.0 mm/hr 0.00 in0.0 mm
12:47 AM 66.0°F18.9°C 56.0°F13.3°C 70% Calm Calm 1.6 mph2.6 kmh 29.58 in1001.7 mb 0.00 in0.0 mm 0.00 in/hr0.0 mm/hr 0.00 in0.0 mm
12:46 AM 66.2°F19.0°C 55.8°F13.2°C 69% 0.3 mph NE0.5 kmh NE 3.8 mph6.1 kmh 29.58 in1001.7 mb 0.00 in0.0 mm 0.00 in/hr0.0 mm/hr 0.00 in0.0 mm
12:45 AM 66.0°F18.9°C 55.6°F13.1°C 69% 0.6 mph NE1.0 kmh NE 3.8 mph6.1 kmh 29.58 in1001.7 mb 0.00 in0.0 mm 0.00 in/hr0.0 mm/hr 0.00 in0.0 mm
12:44 AM 66.4°F19.1°C 55.9°F13.3°C 69% 0.7 mph NE1.1 kmh NE 3.8 mph6.1 kmh 29.58 in1001.7 mb 0.00 in0.0 mm 0.00 in/hr0.0 mm/hr 0.00 in0.0 mm
12:43 AM 65.8°F18.8°C 55.4°F13.0°C 69% 1.0 mph NE1.6 kmh NE 3.8 mph6.1 kmh 29.58 in1001.7 mb 0.00 in0.0 mm 0.00 in/hr0.0 mm/hr 0.00 in0.0 mm
12:42 AM 66.4°F19.1°C 55.9°F13.3°C 69% 1.2 mph NE1.9 kmh NE 3.8 mph6.1 kmh 29.58 in1001.7 mb 0.00 in0.0 mm 0.00 in/hr0.0 mm/hr 0.00 in0.0 mm
12:41 AM 66.2°F19.0°C 55.8°F13.2°C 69% 1.2 mph NE1.9 kmh NE 3.8 mph6.1 kmh 29.58 in1001.7 mb 0.00 in0.0 mm 0.00 in/hr0.0 mm/hr 0.00 in0.0 mm
12:40 AM 66.4°F19.1°C 55.9°F13.3°C 69% 1.2 mph NE1.9 kmh NE 3.8 mph6.1 kmh 29.58 in1001.7 mb 0.00 in0.0 mm 0.00 in/hr0.0 mm/hr 0.00 in0.0 mm
12:39 AM 66.2°F19.0°C 56.1°F13.4°C 70% 1.2 mph NE1.9 kmh NE 3.8 mph6.1 kmh 29.58 in1001.7 mb 0.00 in0.0 mm 0.00 in/hr0.0 mm/hr 0.00 in0.0 mm
12:38 AM 66.4°F19.1°C 56.3°F13.5°C 70% 1.2 mph NE1.9 kmh NE 3.8 mph6.1 kmh 29.58 in1001.7 mb 0.00 in0.0 mm 0.00 in/hr0.0 mm/hr 0.00 in0.0 mm
12:37 AM 66.2°F19.0°C 56.1°F13.4°C 70% 1.2 mph NE1.9 kmh NE 3.8 mph6.1 kmh 29.58 in1001.7 mb 0.00 in0.0 mm 0.00 in/hr0.0 mm/hr 0.00 in0.0 mm
12:36 AM 66.2°F19.0°C 56.1°F13.4°C 70% 0.9 mph NE1.4 kmh NE 3.8 mph6.1 kmh 29.58 in1001.7 mb 0.00 in0.0 mm 0.00 in/hr0.0 mm/hr 0.00 in0.0 mm
12:35 AM 66.4°F19.1°C 56.3°F13.5°C 70% 0.6 mph NE1.0 kmh NE 3.1 mph5.0 kmh 29.58 in1001.7 mb 0.00 in0.0 mm 0.00 in/hr0.0 mm/hr 0.00 in0.0 mm
12:34 AM 66.2°F19.0°C 56.1°F13.4°C 70% 0.5 mph NNE0.8 kmh NNE 3.1 mph5.0 kmh 29.58 in1001.7 mb 0.00 in0.0 mm 0.00 in/hr0.0 mm/hr 0.00 in0.0 mm
12:33 AM 66.4°F19.1°C 56.3°F13.5°C 70% 0.2 mph N0.3 kmh N 3.1 mph5.0 kmh 29.58 in1001.7 mb 0.00 in0.0 mm 0.00 in/hr0.0 mm/hr 0.00 in0.0 mm
12:32 AM 66.2°F19.0°C 56.1°F13.4°C 70% Calm Calm 0.7 mph1.1 kmh 29.58 in1001.7 mb 0.00 in0.0 mm 0.00 in/hr0.0 mm/hr 0.00 in0.0 mm
12:31 AM 66.4°F19.1°C 55.9°F13.3°C 69% Calm Calm 0.7 mph1.1 kmh 29.58 in1001.7 mb 0.00 in0.0 mm 0.00 in/hr0.0 mm/hr 0.00 in0.0 mm
12:30 AM 66.4°F19.1°C 55.9°F13.3°C 69% Calm Calm 0.7 mph1.1 kmh 29.58 in1001.7 mb 0.00 in0.0 mm 0.00 in/hr0.0 mm/hr 0.00 in0.0 mm
12:29 AM 66.4°F19.1°C 55.9°F13.3°C 69% 0.1 mph E0.2 kmh E 0.7 mph1.1 kmh 29.58 in1001.7 mb 0.00 in0.0 mm 0.00 in/hr0.0 mm/hr 0.00 in0.0 mm
12:28 AM 66.4°F19.1°C 55.9°F13.3°C 69% 0.1 mph E0.2 kmh E 0.7 mph1.1 kmh 29.58 in1001.7 mb 0.00 in0.0 mm 0.00 in/hr0.0 mm/hr 0.00 in0.0 mm
12:27 AM 66.4°F19.1°C 55.5°F13.1°C 68% 0.2 mph E0.3 kmh E 1.6 mph2.6 kmh 29.58 in1001.7 mb 0.00 in0.0 mm 0.00 in/hr0.0 mm/hr 0.00 in0.0 mm
12:26 AM 66.4°F19.1°C 55.5°F13.1°C 68% 0.3 mph E0.5 kmh E 1.6 mph2.6 kmh 29.58 in1001.7 mb 0.00 in0.0 mm 0.00 in/hr0.0 mm/hr 0.00 in0.0 mm
12:25 AM 66.6°F19.2°C 55.7°F13.2°C 68% 0.3 mph E0.5 kmh E 1.6 mph2.6 kmh 29.58 in1001.7 mb 0.00 in0.0 mm 0.00 in/hr0.0 mm/hr 0.00 in0.0 mm
12:24 AM 66.6°F19.2°C 55.7°F13.2°C 68% 0.4 mph E0.6 kmh E 1.6 mph2.6 kmh 29.58 in1001.7 mb 0.00 in0.0 mm 0.00 in/hr0.0 mm/hr 0.00 in0.0 mm
12:23 AM 66.7°F19.3°C 55.9°F13.3°C 68% 0.6 mph ENE1.0 kmh ENE 3.1 mph5.0 kmh 29.58 in1001.7 mb 0.00 in0.0 mm 0.00 in/hr0.0 mm/hr 0.00 in0.0 mm
12:22 AM 66.6°F19.2°C 55.7°F13.2°C 68% 0.9 mph NE1.4 kmh NE 3.1 mph5.0 kmh 29.58 in1001.7 mb 0.00 in0.0 mm 0.00 in/hr0.0 mm/hr 0.00 in0.0 mm
12:21 AM 66.6°F19.2°C 55.3°F12.9°C 67% 1.3 mph NE2.1 kmh NE 3.8 mph6.1 kmh 29.58 in1001.7 mb 0.00 in0.0 mm 0.00 in/hr0.0 mm/hr 0.00 in0.0 mm
12:20 AM 66.9°F19.4°C 55.6°F13.1°C 67% 1.6 mph NE2.6 kmh NE 3.8 mph6.1 kmh 29.58 in1001.7 mb 0.00 in0.0 mm 0.00 in/hr0.0 mm/hr 0.00 in0.0 mm
12:19 AM 66.7°F19.3°C 55.5°F13.1°C 67% 1.8 mph NE2.9 kmh NE 3.8 mph6.1 kmh 29.58 in1001.7 mb 0.00 in0.0 mm 0.00 in/hr0.0 mm/hr 0.00 in0.0 mm
12:18 AM 66.7°F19.3°C 55.5°F13.1°C 67% 2.1 mph NNE3.4 kmh NNE 3.8 mph6.1 kmh 29.58 in1001.7 mb 0.00 in0.0 mm 0.00 in/hr0.0 mm/hr 0.00 in0.0 mm
12:17 AM 66.9°F19.4°C 55.6°F13.1°C 67% 2.2 mph NNE3.5 kmh NNE 3.8 mph6.1 kmh 29.58 in1001.7 mb 0.00 in0.0 mm 0.00 in/hr0.0 mm/hr 0.00 in0.0 mm
12:16 AM 66.7°F19.3°C 55.5°F13.1°C 67% 2.3 mph NNE3.7 kmh NNE 3.8 mph6.1 kmh 29.58 in1001.7 mb 0.00 in0.0 mm 0.00 in/hr0.0 mm/hr 0.00 in0.0 mm
12:15 AM 66.7°F19.3°C 55.9°F13.3°C 68% 2.5 mph NNE4.0 kmh NNE 3.8 mph6.1 kmh 29.58 in1001.7 mb 0.00 in0.0 mm 0.00 in/hr0.0 mm/hr 0.00 in0.0 mm
12:14 AM 66.9°F19.4°C 56.0°F13.3°C 68% 2.5 mph NNE4.0 kmh NNE 3.8 mph6.1 kmh 29.58 in1001.7 mb 0.00 in0.0 mm 0.00 in/hr0.0 mm/hr 0.00 in0.0 mm
12:13 AM 66.9°F19.4°C 56.0°F13.3°C 68% 2.5 mph NE4.0 kmh NE 3.8 mph6.1 kmh 29.58 in1001.7 mb 0.00 in0.0 mm 0.00 in/hr0.0 mm/hr 0.00 in0.0 mm
12:12 AM 67.1°F19.5°C 56.2°F13.4°C 68% 2.4 mph NE3.9 kmh NE 3.8 mph6.1 kmh 29.58 in1001.7 mb 0.00 in0.0 mm 0.00 in/hr0.0 mm/hr 0.00 in0.0 mm
12:11 AM 66.7°F19.3°C 55.9°F13.3°C 68% 2.2 mph NE3.5 kmh NE 3.8 mph6.1 kmh 29.58 in1001.7 mb 0.00 in0.0 mm 0.00 in/hr0.0 mm/hr 0.00 in0.0 mm
12:10 AM 66.6°F19.2°C 55.7°F13.2°C 68% 2.0 mph NE3.2 kmh NE 3.1 mph5.0 kmh 29.58 in1001.7 mb 0.00 in0.0 mm 0.00 in/hr0.0 mm/hr 0.00 in0.0 mm
12:09 AM 67.3°F19.6°C 56.4°F13.6°C 68% 1.9 mph NE3.1 kmh NE 3.1 mph5.0 kmh 29.58 in1001.7 mb 0.00 in0.0 mm 0.00 in/hr0.0 mm/hr 0.00 in0.0 mm
12:08 AM 66.7°F19.3°C 55.9°F13.3°C 68% 1.8 mph NE2.9 kmh NE 2.2 mph3.5 kmh 29.58 in1001.7 mb 0.00 in0.0 mm 0.00 in/hr0.0 mm/hr 0.00 in0.0 mm
12:07 AM 67.1°F19.5°C 55.8°F13.2°C 67% 1.8 mph NE2.9 kmh NE 2.2 mph3.5 kmh 29.58 in1001.7 mb 0.00 in0.0 mm 0.00 in/hr0.0 mm/hr 0.00 in0.0 mm
12:06 AM 67.3°F19.6°C 56.0°F13.3°C 67% 1.8 mph NNE2.9 kmh NNE 2.2 mph3.5 kmh 29.58 in1001.7 mb 0.00 in0.0 mm 0.00 in/hr0.0 mm/hr 0.00 in0.0 mm
12:05 AM 67.6°F19.8°C 56.3°F13.5°C 67% 1.9 mph NNE3.1 kmh NNE 3.1 mph5.0 kmh 29.58 in1001.7 mb 0.00 in0.0 mm 0.00 in/hr0.0 mm/hr 0.00 in0.0 mm
12:04 AM 67.5°F19.7°C 55.7°F13.2°C 66% 2.1 mph NNE3.4 kmh NNE 3.1 mph5.0 kmh 29.58 in1001.7 mb 0.00 in0.0 mm 0.00 in/hr0.0 mm/hr 0.00 in0.0 mm
12:03 AM 67.6°F19.8°C 55.9°F13.3°C 66% 2.2 mph N3.5 kmh N 3.1 mph5.0 kmh 29.58 in1001.7 mb 0.00 in0.0 mm 0.00 in/hr0.0 mm/hr 0.00 in0.0 mm
12:02 AM 67.6°F19.8°C 55.9°F13.3°C 66% 2.4 mph N3.9 kmh N 3.8 mph6.1 kmh 29.58 in1001.7 mb 0.00 in0.0 mm 0.00 in/hr0.0 mm/hr 0.00 in0.0 mm
12:01 AM 67.6°F19.8°C 55.9°F13.3°C 66% 2.6 mph N4.2 kmh N 3.8 mph6.1 kmh 29.58 in1001.7 mb 0.00 in0.0 mm 0.00 in/hr0.0 mm/hr 0.00 in0.0 mm
12:00 AM 67.6°F19.8°C 55.5°F13.1°C 65% 2.8 mph N4.5 kmh N 3.8 mph6.1 kmh 29.58 in1001.7 mb 0.00 in0.0 mm 0.00 in/hr0.0 mm/hr 0.00 in0.0 mm